<?xml version="1.0" encoding="UTF-8"?>
<gpx xmlns:xsi="http://www.w3.org/2001/XMLSchema-instance" xsi:schemaLocation="http://www.topografix.com/GPX/1/1 http://www.topografix.com/GPX/1/1/gpx.xsd" creator="StravaGPX" version="1.1" xmlns="http://www.topografix.com/GPX/1/1">
 <metadata>
  <time>2025-12-25T12:44:33Z</time>
 </metadata>
 <trk>
  <name>Alcock and Brown memorial</name>
  <type>walking</type>
  <trkseg>
   <trkpt lat="53.4629210" lon="-10.0017520">
    <ele>19.1</ele>
    <time>2025-12-25T12:44:33Z</time>
   </trkpt>
   <trkpt lat="53.4628760" lon="-10.0017770">
    <ele>17.2</ele>
    <time>2025-12-25T12:45:01Z</time>
   </trkpt>
   <trkpt lat="53.4627890" lon="-10.0018220">
    <ele>16.8</ele>
    <time>2025-12-25T12:45:06Z</time>
   </trkpt>
   <trkpt lat="53.4627080" lon="-10.0018160">
    <ele>16.3</ele>
    <time>2025-12-25T12:45:11Z</time>
   </trkpt>
   <trkpt lat="53.4626380" lon="-10.0018450">
    <ele>15.8</ele>
    <time>2025-12-25T12:45:17Z</time>
   </trkpt>
   <trkpt lat="53.4625660" lon="-10.0018640">
    <ele>15.5</ele>
    <time>2025-12-25T12:45:22Z</time>
   </trkpt>
   <trkpt lat="53.4624780" lon="-10.0018540">
    <ele>15.3</ele>
    <time>2025-12-25T12:45:28Z</time>
   </trkpt>
   <trkpt lat="53.4624030" lon="-10.0018320">
    <ele>15.3</ele>
    <time>2025-12-25T12:45:33Z</time>
   </trkpt>
   <trkpt lat="53.4624300" lon="-10.0019040">
    <ele>14.9</ele>
    <time>2025-12-25T12:45:42Z</time>
   </trkpt>
   <trkpt lat="53.4623970" lon="-10.0018490">
    <ele>14.5</ele>
    <time>2025-12-25T12:45:54Z</time>
   </trkpt>
   <trkpt lat="53.4623300" lon="-10.0017430">
    <ele>14.4</ele>
    <time>2025-12-25T12:46:00Z</time>
   </trkpt>
   <trkpt lat="53.4622610" lon="-10.0016860">
    <ele>14.4</ele>
    <time>2025-12-25T12:46:05Z</time>
   </trkpt>
   <trkpt lat="53.4622200" lon="-10.0016210">
    <ele>14.6</ele>
    <time>2025-12-25T12:46:10Z</time>
   </trkpt>
   <trkpt lat="53.4621670" lon="-10.0015570">
    <ele>15.3</ele>
    <time>2025-12-25T12:46:16Z</time>
   </trkpt>
   <trkpt lat="53.4621580" lon="-10.0016320">
    <ele>15.8</ele>
    <time>2025-12-25T12:46:21Z</time>
   </trkpt>
   <trkpt lat="53.4621440" lon="-10.0017120">
    <ele>16.8</ele>
    <time>2025-12-25T12:46:35Z</time>
   </trkpt>
   <trkpt lat="53.4621350" lon="-10.0018440">
    <ele>17.5</ele>
    <time>2025-12-25T12:46:40Z</time>
   </trkpt>
   <trkpt lat="53.4621270" lon="-10.0019480">
    <ele>18.4</ele>
    <time>2025-12-25T12:46:45Z</time>
   </trkpt>
   <trkpt lat="53.4621300" lon="-10.0020450">
    <ele>18.8</ele>
    <time>2025-12-25T12:46:50Z</time>
   </trkpt>
   <trkpt lat="53.4621380" lon="-10.0021690">
    <ele>19.3</ele>
    <time>2025-12-25T12:46:56Z</time>
   </trkpt>
   <trkpt lat="53.4621420" lon="-10.0022760">
    <ele>19.6</ele>
    <time>2025-12-25T12:47:01Z</time>
   </trkpt>
   <trkpt lat="53.4621440" lon="-10.0023830">
    <ele>19.6</ele>
    <time>2025-12-25T12:47:06Z</time>
   </trkpt>
   <trkpt lat="53.4621470" lon="-10.0025050">
    <ele>19.7</ele>
    <time>2025-12-25T12:47:12Z</time>
   </trkpt>
   <trkpt lat="53.4621600" lon="-10.0026270">
    <ele>19.7</ele>
    <time>2025-12-25T12:47:17Z</time>
   </trkpt>
   <trkpt lat="53.4621720" lon="-10.0027320">
    <ele>19.5</ele>
    <time>2025-12-25T12:47:23Z</time>
   </trkpt>
   <trkpt lat="53.4621770" lon="-10.0028670">
    <ele>19.5</ele>
    <time>2025-12-25T12:47:28Z</time>
   </trkpt>
   <trkpt lat="53.4621870" lon="-10.0029810">
    <ele>19.5</ele>
    <time>2025-12-25T12:47:33Z</time>
   </trkpt>
   <trkpt lat="53.4622240" lon="-10.0030820">
    <ele>19.2</ele>
    <time>2025-12-25T12:47:39Z</time>
   </trkpt>
   <trkpt lat="53.4622280" lon="-10.0031950">
    <ele>18.9</ele>
    <time>2025-12-25T12:47:44Z</time>
   </trkpt>
   <trkpt lat="53.4622500" lon="-10.0033140">
    <ele>18.2</ele>
    <time>2025-12-25T12:47:49Z</time>
   </trkpt>
   <trkpt lat="53.4622730" lon="-10.0034230">
    <ele>17.7</ele>
    <time>2025-12-25T12:47:54Z</time>
   </trkpt>
   <trkpt lat="53.4623160" lon="-10.0035030">
    <ele>17.6</ele>
    <time>2025-12-25T12:48:00Z</time>
   </trkpt>
   <trkpt lat="53.4623390" lon="-10.0036030">
    <ele>17.2</ele>
    <time>2025-12-25T12:48:05Z</time>
   </trkpt>
   <trkpt lat="53.4623570" lon="-10.0036810">
    <ele>16.5</ele>
    <time>2025-12-25T12:48:14Z</time>
   </trkpt>
   <trkpt lat="53.4624170" lon="-10.0037950">
    <ele>16.3</ele>
    <time>2025-12-25T12:48:20Z</time>
   </trkpt>
   <trkpt lat="53.4624570" lon="-10.0038510">
    <ele>16.2</ele>
    <time>2025-12-25T12:48:25Z</time>
   </trkpt>
   <trkpt lat="53.4624520" lon="-10.0039730">
    <ele>15.8</ele>
    <time>2025-12-25T12:48:30Z</time>
   </trkpt>
   <trkpt lat="53.4624710" lon="-10.0040880">
    <ele>15.8</ele>
    <time>2025-12-25T12:48:35Z</time>
   </trkpt>
   <trkpt lat="53.4625080" lon="-10.0041900">
    <ele>15.6</ele>
    <time>2025-12-25T12:48:40Z</time>
   </trkpt>
   <trkpt lat="53.4625550" lon="-10.0042890">
    <ele>15.3</ele>
    <time>2025-12-25T12:48:46Z</time>
   </trkpt>
   <trkpt lat="53.4626020" lon="-10.0043770">
    <ele>15.5</ele>
    <time>2025-12-25T12:48:51Z</time>
   </trkpt>
   <trkpt lat="53.4626390" lon="-10.0044940">
    <ele>15.5</ele>
    <time>2025-12-25T12:48:56Z</time>
   </trkpt>
   <trkpt lat="53.4626670" lon="-10.0046040">
    <ele>15.4</ele>
    <time>2025-12-25T12:49:02Z</time>
   </trkpt>
   <trkpt lat="53.4627100" lon="-10.0046890">
    <ele>15.6</ele>
    <time>2025-12-25T12:49:07Z</time>
   </trkpt>
   <trkpt lat="53.4627850" lon="-10.0047420">
    <ele>15.6</ele>
    <time>2025-12-25T12:49:13Z</time>
   </trkpt>
   <trkpt lat="53.4628190" lon="-10.0048700">
    <ele>15.5</ele>
    <time>2025-12-25T12:49:18Z</time>
   </trkpt>
   <trkpt lat="53.4628300" lon="-10.0049540">
    <ele>15.5</ele>
    <time>2025-12-25T12:49:23Z</time>
   </trkpt>
   <trkpt lat="53.4628560" lon="-10.0050230">
    <ele>15.7</ele>
    <time>2025-12-25T12:49:59Z</time>
   </trkpt>
   <trkpt lat="53.4629140" lon="-10.0051570">
    <ele>15.8</ele>
    <time>2025-12-25T12:50:05Z</time>
   </trkpt>
   <trkpt lat="53.4629710" lon="-10.0053140">
    <ele>15.5</ele>
    <time>2025-12-25T12:50:11Z</time>
   </trkpt>
   <trkpt lat="53.4629870" lon="-10.0054450">
    <ele>15.1</ele>
    <time>2025-12-25T12:50:16Z</time>
   </trkpt>
   <trkpt lat="53.4630150" lon="-10.0053660">
    <ele>14.7</ele>
    <time>2025-12-25T12:50:21Z</time>
   </trkpt>
   <trkpt lat="53.4630680" lon="-10.0054650">
    <ele>14.8</ele>
    <time>2025-12-25T12:50:27Z</time>
   </trkpt>
   <trkpt lat="53.4630730" lon="-10.0055480">
    <ele>15.4</ele>
    <time>2025-12-25T12:50:46Z</time>
   </trkpt>
   <trkpt lat="53.4631460" lon="-10.0056590">
    <ele>15.6</ele>
    <time>2025-12-25T12:50:51Z</time>
   </trkpt>
   <trkpt lat="53.4631820" lon="-10.0057720">
    <ele>15.8</ele>
    <time>2025-12-25T12:50:57Z</time>
   </trkpt>
   <trkpt lat="53.4632300" lon="-10.0058530">
    <ele>16.0</ele>
    <time>2025-12-25T12:51:02Z</time>
   </trkpt>
   <trkpt lat="53.4632630" lon="-10.0059410">
    <ele>15.7</ele>
    <time>2025-12-25T12:51:07Z</time>
   </trkpt>
   <trkpt lat="53.4632970" lon="-10.0060430">
    <ele>15.2</ele>
    <time>2025-12-25T12:51:13Z</time>
   </trkpt>
   <trkpt lat="53.4633230" lon="-10.0061580">
    <ele>14.6</ele>
    <time>2025-12-25T12:51:18Z</time>
   </trkpt>
   <trkpt lat="53.4633480" lon="-10.0062800">
    <ele>14.2</ele>
    <time>2025-12-25T12:51:24Z</time>
   </trkpt>
   <trkpt lat="53.4633630" lon="-10.0063880">
    <ele>13.9</ele>
    <time>2025-12-25T12:51:29Z</time>
   </trkpt>
   <trkpt lat="53.4633690" lon="-10.0064810">
    <ele>13.4</ele>
    <time>2025-12-25T12:51:34Z</time>
   </trkpt>
   <trkpt lat="53.4633670" lon="-10.0066110">
    <ele>13.3</ele>
    <time>2025-12-25T12:51:39Z</time>
   </trkpt>
   <trkpt lat="53.4633500" lon="-10.0067210">
    <ele>13.1</ele>
    <time>2025-12-25T12:51:45Z</time>
   </trkpt>
   <trkpt lat="53.4633480" lon="-10.0068450">
    <ele>13.1</ele>
    <time>2025-12-25T12:51:50Z</time>
   </trkpt>
   <trkpt lat="53.4633260" lon="-10.0069470">
    <ele>13.0</ele>
    <time>2025-12-25T12:51:55Z</time>
   </trkpt>
   <trkpt lat="53.4633050" lon="-10.0070680">
    <ele>12.5</ele>
    <time>2025-12-25T12:52:01Z</time>
   </trkpt>
   <trkpt lat="53.4632890" lon="-10.0071680">
    <ele>12.0</ele>
    <time>2025-12-25T12:52:06Z</time>
   </trkpt>
   <trkpt lat="53.4632580" lon="-10.0072660">
    <ele>11.5</ele>
    <time>2025-12-25T12:52:12Z</time>
   </trkpt>
   <trkpt lat="53.4632210" lon="-10.0073740">
    <ele>11.2</ele>
    <time>2025-12-25T12:52:17Z</time>
   </trkpt>
   <trkpt lat="53.4631870" lon="-10.0074870">
    <ele>10.9</ele>
    <time>2025-12-25T12:52:22Z</time>
   </trkpt>
   <trkpt lat="53.4631520" lon="-10.0075950">
    <ele>10.9</ele>
    <time>2025-12-25T12:52:28Z</time>
   </trkpt>
   <trkpt lat="53.4631200" lon="-10.0077160">
    <ele>11.2</ele>
    <time>2025-12-25T12:52:34Z</time>
   </trkpt>
   <trkpt lat="53.4631020" lon="-10.0078210">
    <ele>12.0</ele>
    <time>2025-12-25T12:52:39Z</time>
   </trkpt>
   <trkpt lat="53.4630860" lon="-10.0079490">
    <ele>12.5</ele>
    <time>2025-12-25T12:52:45Z</time>
   </trkpt>
   <trkpt lat="53.4630650" lon="-10.0080580">
    <ele>12.9</ele>
    <time>2025-12-25T12:52:50Z</time>
   </trkpt>
   <trkpt lat="53.4630510" lon="-10.0081870">
    <ele>13.1</ele>
    <time>2025-12-25T12:52:56Z</time>
   </trkpt>
   <trkpt lat="53.4630430" lon="-10.0083270">
    <ele>13.3</ele>
    <time>2025-12-25T12:53:01Z</time>
   </trkpt>
   <trkpt lat="53.4630340" lon="-10.0084270">
    <ele>13.7</ele>
    <time>2025-12-25T12:53:06Z</time>
   </trkpt>
   <trkpt lat="53.4630330" lon="-10.0085540">
    <ele>13.6</ele>
    <time>2025-12-25T12:53:12Z</time>
   </trkpt>
   <trkpt lat="53.4630280" lon="-10.0086660">
    <ele>13.6</ele>
    <time>2025-12-25T12:53:17Z</time>
   </trkpt>
   <trkpt lat="53.4630300" lon="-10.0087890">
    <ele>13.7</ele>
    <time>2025-12-25T12:53:23Z</time>
   </trkpt>
   <trkpt lat="53.4630360" lon="-10.0089170">
    <ele>14.1</ele>
    <time>2025-12-25T12:53:28Z</time>
   </trkpt>
   <trkpt lat="53.4630320" lon="-10.0090340">
    <ele>14.2</ele>
    <time>2025-12-25T12:53:34Z</time>
   </trkpt>
   <trkpt lat="53.4630290" lon="-10.0091490">
    <ele>13.8</ele>
    <time>2025-12-25T12:53:39Z</time>
   </trkpt>
   <trkpt lat="53.4630300" lon="-10.0092610">
    <ele>13.2</ele>
    <time>2025-12-25T12:53:44Z</time>
   </trkpt>
   <trkpt lat="53.4630180" lon="-10.0093850">
    <ele>12.6</ele>
    <time>2025-12-25T12:53:50Z</time>
   </trkpt>
   <trkpt lat="53.4630080" lon="-10.0095260">
    <ele>12.3</ele>
    <time>2025-12-25T12:53:55Z</time>
   </trkpt>
   <trkpt lat="53.4630200" lon="-10.0096380">
    <ele>11.9</ele>
    <time>2025-12-25T12:54:01Z</time>
   </trkpt>
   <trkpt lat="53.4630010" lon="-10.0097510">
    <ele>11.4</ele>
    <time>2025-12-25T12:54:06Z</time>
   </trkpt>
   <trkpt lat="53.4629990" lon="-10.0098650">
    <ele>11.3</ele>
    <time>2025-12-25T12:54:11Z</time>
   </trkpt>
   <trkpt lat="53.4630070" lon="-10.0099960">
    <ele>11.5</ele>
    <time>2025-12-25T12:54:17Z</time>
   </trkpt>
   <trkpt lat="53.4630110" lon="-10.0101090">
    <ele>11.8</ele>
    <time>2025-12-25T12:54:22Z</time>
   </trkpt>
   <trkpt lat="53.4630190" lon="-10.0102360">
    <ele>12.1</ele>
    <time>2025-12-25T12:54:28Z</time>
   </trkpt>
   <trkpt lat="53.4630230" lon="-10.0103550">
    <ele>12.1</ele>
    <time>2025-12-25T12:54:33Z</time>
   </trkpt>
   <trkpt lat="53.4630250" lon="-10.0104700">
    <ele>11.8</ele>
    <time>2025-12-25T12:54:38Z</time>
   </trkpt>
   <trkpt lat="53.4630370" lon="-10.0105980">
    <ele>11.6</ele>
    <time>2025-12-25T12:54:44Z</time>
   </trkpt>
   <trkpt lat="53.4630340" lon="-10.0107250">
    <ele>11.3</ele>
    <time>2025-12-25T12:54:49Z</time>
   </trkpt>
   <trkpt lat="53.4630480" lon="-10.0108380">
    <ele>11.3</ele>
    <time>2025-12-25T12:54:55Z</time>
   </trkpt>
   <trkpt lat="53.4630600" lon="-10.0109570">
    <ele>11.4</ele>
    <time>2025-12-25T12:55:00Z</time>
   </trkpt>
   <trkpt lat="53.4630720" lon="-10.0110510">
    <ele>11.5</ele>
    <time>2025-12-25T12:55:06Z</time>
   </trkpt>
   <trkpt lat="53.4630850" lon="-10.0111750">
    <ele>11.5</ele>
    <time>2025-12-25T12:55:11Z</time>
   </trkpt>
   <trkpt lat="53.4630850" lon="-10.0113000">
    <ele>11.2</ele>
    <time>2025-12-25T12:55:17Z</time>
   </trkpt>
   <trkpt lat="53.4630850" lon="-10.0114150">
    <ele>10.6</ele>
    <time>2025-12-25T12:55:22Z</time>
   </trkpt>
   <trkpt lat="53.4630970" lon="-10.0115190">
    <ele>10.1</ele>
    <time>2025-12-25T12:55:27Z</time>
   </trkpt>
   <trkpt lat="53.4631100" lon="-10.0116210">
    <ele>10.1</ele>
    <time>2025-12-25T12:55:33Z</time>
   </trkpt>
   <trkpt lat="53.4631390" lon="-10.0116950">
    <ele>10.7</ele>
    <time>2025-12-25T12:55:49Z</time>
   </trkpt>
   <trkpt lat="53.4631500" lon="-10.0118270">
    <ele>11.0</ele>
    <time>2025-12-25T12:55:54Z</time>
   </trkpt>
   <trkpt lat="53.4631890" lon="-10.0118830">
    <ele>11.1</ele>
    <time>2025-12-25T12:55:59Z</time>
   </trkpt>
   <trkpt lat="53.4631480" lon="-10.0120280">
    <ele>11.0</ele>
    <time>2025-12-25T12:56:05Z</time>
   </trkpt>
   <trkpt lat="53.4631540" lon="-10.0121370">
    <ele>11.0</ele>
    <time>2025-12-25T12:56:10Z</time>
   </trkpt>
   <trkpt lat="53.4631640" lon="-10.0122270">
    <ele>11.2</ele>
    <time>2025-12-25T12:56:20Z</time>
   </trkpt>
   <trkpt lat="53.4631980" lon="-10.0124180">
    <ele>11.3</ele>
    <time>2025-12-25T12:56:25Z</time>
   </trkpt>
   <trkpt lat="53.4632110" lon="-10.0125660">
    <ele>11.4</ele>
    <time>2025-12-25T12:56:31Z</time>
   </trkpt>
   <trkpt lat="53.4632270" lon="-10.0126950">
    <ele>11.5</ele>
    <time>2025-12-25T12:56:36Z</time>
   </trkpt>
   <trkpt lat="53.4632280" lon="-10.0128070">
    <ele>11.6</ele>
    <time>2025-12-25T12:56:41Z</time>
   </trkpt>
   <trkpt lat="53.4632290" lon="-10.0129200">
    <ele>11.7</ele>
    <time>2025-12-25T12:56:47Z</time>
   </trkpt>
   <trkpt lat="53.4632270" lon="-10.0130400">
    <ele>11.8</ele>
    <time>2025-12-25T12:56:52Z</time>
   </trkpt>
   <trkpt lat="53.4632410" lon="-10.0131520">
    <ele>11.6</ele>
    <time>2025-12-25T12:56:58Z</time>
   </trkpt>
   <trkpt lat="53.4632560" lon="-10.0132640">
    <ele>11.4</ele>
    <time>2025-12-25T12:57:03Z</time>
   </trkpt>
   <trkpt lat="53.4632670" lon="-10.0133690">
    <ele>11.3</ele>
    <time>2025-12-25T12:57:08Z</time>
   </trkpt>
   <trkpt lat="53.4632790" lon="-10.0134960">
    <ele>11.2</ele>
    <time>2025-12-25T12:57:14Z</time>
   </trkpt>
   <trkpt lat="53.4632800" lon="-10.0136090">
    <ele>11.2</ele>
    <time>2025-12-25T12:57:19Z</time>
   </trkpt>
   <trkpt lat="53.4633110" lon="-10.0137030">
    <ele>11.2</ele>
    <time>2025-12-25T12:57:24Z</time>
   </trkpt>
   <trkpt lat="53.4633230" lon="-10.0138080">
    <ele>11.2</ele>
    <time>2025-12-25T12:57:29Z</time>
   </trkpt>
   <trkpt lat="53.4633360" lon="-10.0139160">
    <ele>11.2</ele>
    <time>2025-12-25T12:57:35Z</time>
   </trkpt>
   <trkpt lat="53.4633400" lon="-10.0140270">
    <ele>11.2</ele>
    <time>2025-12-25T12:57:40Z</time>
   </trkpt>
   <trkpt lat="53.4633310" lon="-10.0141520">
    <ele>11.2</ele>
    <time>2025-12-25T12:57:46Z</time>
   </trkpt>
   <trkpt lat="53.4633610" lon="-10.0142740">
    <ele>11.1</ele>
    <time>2025-12-25T12:57:51Z</time>
   </trkpt>
   <trkpt lat="53.4633740" lon="-10.0144080">
    <ele>11.2</ele>
    <time>2025-12-25T12:57:56Z</time>
   </trkpt>
   <trkpt lat="53.4633850" lon="-10.0145030">
    <ele>11.0</ele>
    <time>2025-12-25T12:58:02Z</time>
   </trkpt>
   <trkpt lat="53.4633890" lon="-10.0146250">
    <ele>10.9</ele>
    <time>2025-12-25T12:58:07Z</time>
   </trkpt>
   <trkpt lat="53.4633760" lon="-10.0147660">
    <ele>10.8</ele>
    <time>2025-12-25T12:58:13Z</time>
   </trkpt>
   <trkpt lat="53.4633670" lon="-10.0149010">
    <ele>10.8</ele>
    <time>2025-12-25T12:58:18Z</time>
   </trkpt>
   <trkpt lat="53.4633750" lon="-10.0149990">
    <ele>10.6</ele>
    <time>2025-12-25T12:58:23Z</time>
   </trkpt>
   <trkpt lat="53.4633740" lon="-10.0150970">
    <ele>10.3</ele>
    <time>2025-12-25T12:58:29Z</time>
   </trkpt>
   <trkpt lat="53.4633650" lon="-10.0151950">
    <ele>10.2</ele>
    <time>2025-12-25T12:58:34Z</time>
   </trkpt>
   <trkpt lat="53.4633580" lon="-10.0153110">
    <ele>10.4</ele>
    <time>2025-12-25T12:58:40Z</time>
   </trkpt>
   <trkpt lat="53.4633580" lon="-10.0154390">
    <ele>10.2</ele>
    <time>2025-12-25T12:58:45Z</time>
   </trkpt>
   <trkpt lat="53.4633670" lon="-10.0155950">
    <ele>10.0</ele>
    <time>2025-12-25T12:58:51Z</time>
   </trkpt>
   <trkpt lat="53.4633680" lon="-10.0157110">
    <ele>9.9</ele>
    <time>2025-12-25T12:58:56Z</time>
   </trkpt>
   <trkpt lat="53.4633720" lon="-10.0158180">
    <ele>10.0</ele>
    <time>2025-12-25T12:59:02Z</time>
   </trkpt>
   <trkpt lat="53.4633670" lon="-10.0159380">
    <ele>9.8</ele>
    <time>2025-12-25T12:59:07Z</time>
   </trkpt>
   <trkpt lat="53.4633610" lon="-10.0160580">
    <ele>9.4</ele>
    <time>2025-12-25T12:59:12Z</time>
   </trkpt>
   <trkpt lat="53.4633790" lon="-10.0161770">
    <ele>9.4</ele>
    <time>2025-12-25T12:59:18Z</time>
   </trkpt>
   <trkpt lat="53.4633990" lon="-10.0162970">
    <ele>9.5</ele>
    <time>2025-12-25T12:59:23Z</time>
   </trkpt>
   <trkpt lat="53.4634130" lon="-10.0164380">
    <ele>9.2</ele>
    <time>2025-12-25T12:59:29Z</time>
   </trkpt>
   <trkpt lat="53.4634390" lon="-10.0165550">
    <ele>8.5</ele>
    <time>2025-12-25T12:59:34Z</time>
   </trkpt>
   <trkpt lat="53.4634770" lon="-10.0166460">
    <ele>7.9</ele>
    <time>2025-12-25T12:59:40Z</time>
   </trkpt>
   <trkpt lat="53.4635300" lon="-10.0167130">
    <ele>7.3</ele>
    <time>2025-12-25T12:59:45Z</time>
   </trkpt>
   <trkpt lat="53.4635620" lon="-10.0168270">
    <ele>7.2</ele>
    <time>2025-12-25T12:59:50Z</time>
   </trkpt>
   <trkpt lat="53.4635820" lon="-10.0169430">
    <ele>7.3</ele>
    <time>2025-12-25T12:59:56Z</time>
   </trkpt>
   <trkpt lat="53.4636100" lon="-10.0170490">
    <ele>6.9</ele>
    <time>2025-12-25T13:00:01Z</time>
   </trkpt>
   <trkpt lat="53.4636600" lon="-10.0171210">
    <ele>6.6</ele>
    <time>2025-12-25T13:00:06Z</time>
   </trkpt>
   <trkpt lat="53.4637050" lon="-10.0171910">
    <ele>6.2</ele>
    <time>2025-12-25T13:00:11Z</time>
   </trkpt>
   <trkpt lat="53.4637660" lon="-10.0172600">
    <ele>6.1</ele>
    <time>2025-12-25T13:00:17Z</time>
   </trkpt>
   <trkpt lat="53.4638160" lon="-10.0173540">
    <ele>6.3</ele>
    <time>2025-12-25T13:00:22Z</time>
   </trkpt>
   <trkpt lat="53.4638770" lon="-10.0174280">
    <ele>6.4</ele>
    <time>2025-12-25T13:00:28Z</time>
   </trkpt>
   <trkpt lat="53.4639270" lon="-10.0175180">
    <ele>6.3</ele>
    <time>2025-12-25T13:00:33Z</time>
   </trkpt>
   <trkpt lat="53.4639770" lon="-10.0175890">
    <ele>6.0</ele>
    <time>2025-12-25T13:00:39Z</time>
   </trkpt>
   <trkpt lat="53.4640210" lon="-10.0176680">
    <ele>5.7</ele>
    <time>2025-12-25T13:00:44Z</time>
   </trkpt>
   <trkpt lat="53.4640280" lon="-10.0177450">
    <ele>5.7</ele>
    <time>2025-12-25T13:00:49Z</time>
   </trkpt>
   <trkpt lat="53.4640100" lon="-10.0178300">
    <ele>5.4</ele>
    <time>2025-12-25T13:00:54Z</time>
   </trkpt>
   <trkpt lat="53.4640200" lon="-10.0179060">
    <ele>5.4</ele>
    <time>2025-12-25T13:00:59Z</time>
   </trkpt>
   <trkpt lat="53.4639960" lon="-10.0179730">
    <ele>5.2</ele>
    <time>2025-12-25T13:01:27Z</time>
   </trkpt>
   <trkpt lat="53.4639280" lon="-10.0180700">
    <ele>5.1</ele>
    <time>2025-12-25T13:01:32Z</time>
   </trkpt>
   <trkpt lat="53.4638710" lon="-10.0181530">
    <ele>4.8</ele>
    <time>2025-12-25T13:01:38Z</time>
   </trkpt>
   <trkpt lat="53.4638110" lon="-10.0181710">
    <ele>4.8</ele>
    <time>2025-12-25T13:01:43Z</time>
   </trkpt>
   <trkpt lat="53.4637510" lon="-10.0181710">
    <ele>5.3</ele>
    <time>2025-12-25T13:01:48Z</time>
   </trkpt>
   <trkpt lat="53.4637060" lon="-10.0182420">
    <ele>5.4</ele>
    <time>2025-12-25T13:01:53Z</time>
   </trkpt>
   <trkpt lat="53.4636730" lon="-10.0183500">
    <ele>5.6</ele>
    <time>2025-12-25T13:01:58Z</time>
   </trkpt>
   <trkpt lat="53.4636230" lon="-10.0184700">
    <ele>5.7</ele>
    <time>2025-12-25T13:02:04Z</time>
   </trkpt>
   <trkpt lat="53.4635620" lon="-10.0185530">
    <ele>5.8</ele>
    <time>2025-12-25T13:02:10Z</time>
   </trkpt>
   <trkpt lat="53.4635140" lon="-10.0186210">
    <ele>5.9</ele>
    <time>2025-12-25T13:02:15Z</time>
   </trkpt>
   <trkpt lat="53.4634490" lon="-10.0187100">
    <ele>5.9</ele>
    <time>2025-12-25T13:02:21Z</time>
   </trkpt>
   <trkpt lat="53.4634130" lon="-10.0188030">
    <ele>6.2</ele>
    <time>2025-12-25T13:02:26Z</time>
   </trkpt>
   <trkpt lat="53.4633670" lon="-10.0188620">
    <ele>6.2</ele>
    <time>2025-12-25T13:02:38Z</time>
   </trkpt>
   <trkpt lat="53.4632810" lon="-10.0189590">
    <ele>6.0</ele>
    <time>2025-12-25T13:02:44Z</time>
   </trkpt>
   <trkpt lat="53.4632200" lon="-10.0190070">
    <ele>6.1</ele>
    <time>2025-12-25T13:02:49Z</time>
   </trkpt>
   <trkpt lat="53.4631590" lon="-10.0190590">
    <ele>6.1</ele>
    <time>2025-12-25T13:02:54Z</time>
   </trkpt>
   <trkpt lat="53.4630940" lon="-10.0191110">
    <ele>6.4</ele>
    <time>2025-12-25T13:03:00Z</time>
   </trkpt>
   <trkpt lat="53.4630380" lon="-10.0191470">
    <ele>6.3</ele>
    <time>2025-12-25T13:03:05Z</time>
   </trkpt>
   <trkpt lat="53.4629720" lon="-10.0191600">
    <ele>6.4</ele>
    <time>2025-12-25T13:03:10Z</time>
   </trkpt>
   <trkpt lat="53.4629160" lon="-10.0192010">
    <ele>6.5</ele>
    <time>2025-12-25T13:03:16Z</time>
   </trkpt>
   <trkpt lat="53.4628470" lon="-10.0191970">
    <ele>6.6</ele>
    <time>2025-12-25T13:03:21Z</time>
   </trkpt>
   <trkpt lat="53.4627770" lon="-10.0191990">
    <ele>6.8</ele>
    <time>2025-12-25T13:03:26Z</time>
   </trkpt>
   <trkpt lat="53.4627060" lon="-10.0192090">
    <ele>7.1</ele>
    <time>2025-12-25T13:03:31Z</time>
   </trkpt>
   <trkpt lat="53.4626330" lon="-10.0192420">
    <ele>7.3</ele>
    <time>2025-12-25T13:03:37Z</time>
   </trkpt>
   <trkpt lat="53.4625540" lon="-10.0192740">
    <ele>7.8</ele>
    <time>2025-12-25T13:03:43Z</time>
   </trkpt>
   <trkpt lat="53.4624900" lon="-10.0193430">
    <ele>7.8</ele>
    <time>2025-12-25T13:03:48Z</time>
   </trkpt>
   <trkpt lat="53.4624540" lon="-10.0193910">
    <ele>8.1</ele>
    <time>2025-12-25T13:03:58Z</time>
   </trkpt>
   <trkpt lat="53.4623840" lon="-10.0194320">
    <ele>8.6</ele>
    <time>2025-12-25T13:04:03Z</time>
   </trkpt>
   <trkpt lat="53.4623350" lon="-10.0194760">
    <ele>8.8</ele>
    <time>2025-12-25T13:04:08Z</time>
   </trkpt>
   <trkpt lat="53.4622810" lon="-10.0195650">
    <ele>8.9</ele>
    <time>2025-12-25T13:04:14Z</time>
   </trkpt>
   <trkpt lat="53.4622240" lon="-10.0196340">
    <ele>9.1</ele>
    <time>2025-12-25T13:04:19Z</time>
   </trkpt>
   <trkpt lat="53.4621790" lon="-10.0197100">
    <ele>9.6</ele>
    <time>2025-12-25T13:04:24Z</time>
   </trkpt>
   <trkpt lat="53.4621300" lon="-10.0197930">
    <ele>9.9</ele>
    <time>2025-12-25T13:04:30Z</time>
   </trkpt>
   <trkpt lat="53.4620860" lon="-10.0198880">
    <ele>10.1</ele>
    <time>2025-12-25T13:04:35Z</time>
   </trkpt>
   <trkpt lat="53.4620360" lon="-10.0199860">
    <ele>10.6</ele>
    <time>2025-12-25T13:04:41Z</time>
   </trkpt>
   <trkpt lat="53.4620020" lon="-10.0200730">
    <ele>11.0</ele>
    <time>2025-12-25T13:04:46Z</time>
   </trkpt>
   <trkpt lat="53.4619670" lon="-10.0201720">
    <ele>11.1</ele>
    <time>2025-12-25T13:04:51Z</time>
   </trkpt>
   <trkpt lat="53.4619470" lon="-10.0202820">
    <ele>11.3</ele>
    <time>2025-12-25T13:04:57Z</time>
   </trkpt>
   <trkpt lat="53.4618970" lon="-10.0203700">
    <ele>11.3</ele>
    <time>2025-12-25T13:05:02Z</time>
   </trkpt>
   <trkpt lat="53.4618680" lon="-10.0204730">
    <ele>11.2</ele>
    <time>2025-12-25T13:05:08Z</time>
   </trkpt>
   <trkpt lat="53.4618350" lon="-10.0205680">
    <ele>11.4</ele>
    <time>2025-12-25T13:05:13Z</time>
   </trkpt>
   <trkpt lat="53.4618040" lon="-10.0206740">
    <ele>11.8</ele>
    <time>2025-12-25T13:05:18Z</time>
   </trkpt>
   <trkpt lat="53.4618140" lon="-10.0207850">
    <ele>12.0</ele>
    <time>2025-12-25T13:05:23Z</time>
   </trkpt>
   <trkpt lat="53.4617810" lon="-10.0208970">
    <ele>12.2</ele>
    <time>2025-12-25T13:05:29Z</time>
   </trkpt>
   <trkpt lat="53.4617320" lon="-10.0210120">
    <ele>12.6</ele>
    <time>2025-12-25T13:05:34Z</time>
   </trkpt>
   <trkpt lat="53.4617090" lon="-10.0211310">
    <ele>12.7</ele>
    <time>2025-12-25T13:05:40Z</time>
   </trkpt>
   <trkpt lat="53.4616920" lon="-10.0212370">
    <ele>12.9</ele>
    <time>2025-12-25T13:05:45Z</time>
   </trkpt>
   <trkpt lat="53.4616850" lon="-10.0213500">
    <ele>12.9</ele>
    <time>2025-12-25T13:05:50Z</time>
   </trkpt>
   <trkpt lat="53.4616790" lon="-10.0214720">
    <ele>12.9</ele>
    <time>2025-12-25T13:05:56Z</time>
   </trkpt>
   <trkpt lat="53.4616740" lon="-10.0215960">
    <ele>12.9</ele>
    <time>2025-12-25T13:06:01Z</time>
   </trkpt>
   <trkpt lat="53.4616610" lon="-10.0217200">
    <ele>13.1</ele>
    <time>2025-12-25T13:06:07Z</time>
   </trkpt>
   <trkpt lat="53.4616650" lon="-10.0217950">
    <ele>13.1</ele>
    <time>2025-12-25T13:06:12Z</time>
   </trkpt>
   <trkpt lat="53.4616520" lon="-10.0218780">
    <ele>13.0</ele>
    <time>2025-12-25T13:06:18Z</time>
   </trkpt>
   <trkpt lat="53.4616360" lon="-10.0220070">
    <ele>13.3</ele>
    <time>2025-12-25T13:06:23Z</time>
   </trkpt>
   <trkpt lat="53.4616230" lon="-10.0221420">
    <ele>13.9</ele>
    <time>2025-12-25T13:06:29Z</time>
   </trkpt>
   <trkpt lat="53.4616160" lon="-10.0222700">
    <ele>13.8</ele>
    <time>2025-12-25T13:06:34Z</time>
   </trkpt>
   <trkpt lat="53.4616020" lon="-10.0223850">
    <ele>12.9</ele>
    <time>2025-12-25T13:06:40Z</time>
   </trkpt>
   <trkpt lat="53.4615900" lon="-10.0225100">
    <ele>12.1</ele>
    <time>2025-12-25T13:06:45Z</time>
   </trkpt>
   <trkpt lat="53.4615850" lon="-10.0225930">
    <ele>12.1</ele>
    <time>2025-12-25T13:06:54Z</time>
   </trkpt>
   <trkpt lat="53.4616050" lon="-10.0227270">
    <ele>12.1</ele>
    <time>2025-12-25T13:06:59Z</time>
   </trkpt>
   <trkpt lat="53.4616020" lon="-10.0228490">
    <ele>12.2</ele>
    <time>2025-12-25T13:07:04Z</time>
   </trkpt>
   <trkpt lat="53.4615870" lon="-10.0229210">
    <ele>12.1</ele>
    <time>2025-12-25T13:07:11Z</time>
   </trkpt>
   <trkpt lat="53.4616060" lon="-10.0229920">
    <ele>12.3</ele>
    <time>2025-12-25T13:07:20Z</time>
   </trkpt>
   <trkpt lat="53.4616170" lon="-10.0230750">
    <ele>12.4</ele>
    <time>2025-12-25T13:07:27Z</time>
   </trkpt>
   <trkpt lat="53.4616280" lon="-10.0231480">
    <ele>14.4</ele>
    <time>2025-12-25T13:08:27Z</time>
   </trkpt>
   <trkpt lat="53.4616100" lon="-10.0232580">
    <ele>14.5</ele>
    <time>2025-12-25T13:08:32Z</time>
   </trkpt>
   <trkpt lat="53.4615920" lon="-10.0233650">
    <ele>14.4</ele>
    <time>2025-12-25T13:08:38Z</time>
   </trkpt>
   <trkpt lat="53.4616460" lon="-10.0233430">
    <ele>14.6</ele>
    <time>2025-12-25T13:09:45Z</time>
   </trkpt>
   <trkpt lat="53.4616910" lon="-10.0233870">
    <ele>14.8</ele>
    <time>2025-12-25T13:09:54Z</time>
   </trkpt>
   <trkpt lat="53.4617680" lon="-10.0234710">
    <ele>13.9</ele>
    <time>2025-12-25T13:10:00Z</time>
   </trkpt>
   <trkpt lat="53.4618030" lon="-10.0235740">
    <ele>14.3</ele>
    <time>2025-12-25T13:10:05Z</time>
   </trkpt>
   <trkpt lat="53.4618500" lon="-10.0236610">
    <ele>14.6</ele>
    <time>2025-12-25T13:10:11Z</time>
   </trkpt>
   <trkpt lat="53.4618800" lon="-10.0237370">
    <ele>14.8</ele>
    <time>2025-12-25T13:10:16Z</time>
   </trkpt>
   <trkpt lat="53.4619080" lon="-10.0238020">
    <ele>14.6</ele>
    <time>2025-12-25T13:10:38Z</time>
   </trkpt>
   <trkpt lat="53.4619620" lon="-10.0239350">
    <ele>15.0</ele>
    <time>2025-12-25T13:10:43Z</time>
   </trkpt>
   <trkpt lat="53.4620030" lon="-10.0240140">
    <ele>15.7</ele>
    <time>2025-12-25T13:10:49Z</time>
   </trkpt>
   <trkpt lat="53.4620300" lon="-10.0240940">
    <ele>16.1</ele>
    <time>2025-12-25T13:10:54Z</time>
   </trkpt>
   <trkpt lat="53.4620680" lon="-10.0241740">
    <ele>16.6</ele>
    <time>2025-12-25T13:10:59Z</time>
   </trkpt>
   <trkpt lat="53.4621030" lon="-10.0242530">
    <ele>17.2</ele>
    <time>2025-12-25T13:11:04Z</time>
   </trkpt>
   <trkpt lat="53.4621340" lon="-10.0243360">
    <ele>17.5</ele>
    <time>2025-12-25T13:11:09Z</time>
   </trkpt>
   <trkpt lat="53.4621700" lon="-10.0244390">
    <ele>18.1</ele>
    <time>2025-12-25T13:11:15Z</time>
   </trkpt>
   <trkpt lat="53.4621930" lon="-10.0245240">
    <ele>18.5</ele>
    <time>2025-12-25T13:11:20Z</time>
   </trkpt>
   <trkpt lat="53.4622260" lon="-10.0245900">
    <ele>18.9</ele>
    <time>2025-12-25T13:11:25Z</time>
   </trkpt>
   <trkpt lat="53.4622560" lon="-10.0246880">
    <ele>19.8</ele>
    <time>2025-12-25T13:11:30Z</time>
   </trkpt>
   <trkpt lat="53.4622800" lon="-10.0247850">
    <ele>20.6</ele>
    <time>2025-12-25T13:11:36Z</time>
   </trkpt>
   <trkpt lat="53.4623130" lon="-10.0248720">
    <ele>21.4</ele>
    <time>2025-12-25T13:11:41Z</time>
   </trkpt>
   <trkpt lat="53.4623340" lon="-10.0249670">
    <ele>21.8</ele>
    <time>2025-12-25T13:11:46Z</time>
   </trkpt>
   <trkpt lat="53.4623610" lon="-10.0250600">
    <ele>21.9</ele>
    <time>2025-12-25T13:11:51Z</time>
   </trkpt>
   <trkpt lat="53.4623990" lon="-10.0251400">
    <ele>22.0</ele>
    <time>2025-12-25T13:11:56Z</time>
   </trkpt>
   <trkpt lat="53.4624350" lon="-10.0252300">
    <ele>22.4</ele>
    <time>2025-12-25T13:12:02Z</time>
   </trkpt>
   <trkpt lat="53.4624700" lon="-10.0253180">
    <ele>22.8</ele>
    <time>2025-12-25T13:12:07Z</time>
   </trkpt>
   <trkpt lat="53.4625050" lon="-10.0254160">
    <ele>23.0</ele>
    <time>2025-12-25T13:12:12Z</time>
   </trkpt>
   <trkpt lat="53.4625440" lon="-10.0255100">
    <ele>23.0</ele>
    <time>2025-12-25T13:12:17Z</time>
   </trkpt>
   <trkpt lat="53.4625750" lon="-10.0256040">
    <ele>23.0</ele>
    <time>2025-12-25T13:12:22Z</time>
   </trkpt>
   <trkpt lat="53.4626080" lon="-10.0256840">
    <ele>23.1</ele>
    <time>2025-12-25T13:12:27Z</time>
   </trkpt>
   <trkpt lat="53.4626460" lon="-10.0257570">
    <ele>23.5</ele>
    <time>2025-12-25T13:12:33Z</time>
   </trkpt>
   <trkpt lat="53.4626730" lon="-10.0258300">
    <ele>24.0</ele>
    <time>2025-12-25T13:12:38Z</time>
   </trkpt>
   <trkpt lat="53.4627160" lon="-10.0259410">
    <ele>24.1</ele>
    <time>2025-12-25T13:12:43Z</time>
   </trkpt>
   <trkpt lat="53.4627540" lon="-10.0260310">
    <ele>23.9</ele>
    <time>2025-12-25T13:12:48Z</time>
   </trkpt>
   <trkpt lat="53.4627560" lon="-10.0261110">
    <ele>23.6</ele>
    <time>2025-12-25T13:12:54Z</time>
   </trkpt>
   <trkpt lat="53.4627940" lon="-10.0261560">
    <ele>24.1</ele>
    <time>2025-12-25T13:13:10Z</time>
   </trkpt>
   <trkpt lat="53.4628540" lon="-10.0262990">
    <ele>23.7</ele>
    <time>2025-12-25T13:13:15Z</time>
   </trkpt>
   <trkpt lat="53.4628860" lon="-10.0263840">
    <ele>23.7</ele>
    <time>2025-12-25T13:13:20Z</time>
   </trkpt>
   <trkpt lat="53.4629220" lon="-10.0264720">
    <ele>24.0</ele>
    <time>2025-12-25T13:13:25Z</time>
   </trkpt>
   <trkpt lat="53.4629570" lon="-10.0265460">
    <ele>24.6</ele>
    <time>2025-12-25T13:13:31Z</time>
   </trkpt>
   <trkpt lat="53.4629850" lon="-10.0266290">
    <ele>25.4</ele>
    <time>2025-12-25T13:13:36Z</time>
   </trkpt>
   <trkpt lat="53.4630240" lon="-10.0267070">
    <ele>26.2</ele>
    <time>2025-12-25T13:13:42Z</time>
   </trkpt>
   <trkpt lat="53.4630720" lon="-10.0267950">
    <ele>26.8</ele>
    <time>2025-12-25T13:13:47Z</time>
   </trkpt>
   <trkpt lat="53.4631080" lon="-10.0268800">
    <ele>27.3</ele>
    <time>2025-12-25T13:13:52Z</time>
   </trkpt>
   <trkpt lat="53.4631490" lon="-10.0269610">
    <ele>27.8</ele>
    <time>2025-12-25T13:13:57Z</time>
   </trkpt>
   <trkpt lat="53.4631860" lon="-10.0270250">
    <ele>28.0</ele>
    <time>2025-12-25T13:14:02Z</time>
   </trkpt>
   <trkpt lat="53.4632270" lon="-10.0271050">
    <ele>28.2</ele>
    <time>2025-12-25T13:14:07Z</time>
   </trkpt>
   <trkpt lat="53.4632820" lon="-10.0271790">
    <ele>28.5</ele>
    <time>2025-12-25T13:14:12Z</time>
   </trkpt>
   <trkpt lat="53.4633170" lon="-10.0272510">
    <ele>28.9</ele>
    <time>2025-12-25T13:14:17Z</time>
   </trkpt>
   <trkpt lat="53.4633550" lon="-10.0273340">
    <ele>29.3</ele>
    <time>2025-12-25T13:14:23Z</time>
   </trkpt>
   <trkpt lat="53.4633940" lon="-10.0274090">
    <ele>29.7</ele>
    <time>2025-12-25T13:14:28Z</time>
   </trkpt>
   <trkpt lat="53.4634400" lon="-10.0274810">
    <ele>29.9</ele>
    <time>2025-12-25T13:14:33Z</time>
   </trkpt>
   <trkpt lat="53.4634850" lon="-10.0275680">
    <ele>30.1</ele>
    <time>2025-12-25T13:14:38Z</time>
   </trkpt>
   <trkpt lat="53.4635270" lon="-10.0276490">
    <ele>30.2</ele>
    <time>2025-12-25T13:14:43Z</time>
   </trkpt>
   <trkpt lat="53.4635660" lon="-10.0277260">
    <ele>30.5</ele>
    <time>2025-12-25T13:14:48Z</time>
   </trkpt>
   <trkpt lat="53.4636070" lon="-10.0278110">
    <ele>30.9</ele>
    <time>2025-12-25T13:14:53Z</time>
   </trkpt>
   <trkpt lat="53.4636470" lon="-10.0279050">
    <ele>31.5</ele>
    <time>2025-12-25T13:14:59Z</time>
   </trkpt>
   <trkpt lat="53.4636920" lon="-10.0279780">
    <ele>31.7</ele>
    <time>2025-12-25T13:15:04Z</time>
   </trkpt>
   <trkpt lat="53.4637440" lon="-10.0280400">
    <ele>32.1</ele>
    <time>2025-12-25T13:15:09Z</time>
   </trkpt>
   <trkpt lat="53.4637890" lon="-10.0281210">
    <ele>32.4</ele>
    <time>2025-12-25T13:15:14Z</time>
   </trkpt>
   <trkpt lat="53.4638290" lon="-10.0282010">
    <ele>32.8</ele>
    <time>2025-12-25T13:15:20Z</time>
   </trkpt>
   <trkpt lat="53.4638800" lon="-10.0282810">
    <ele>33.1</ele>
    <time>2025-12-25T13:15:25Z</time>
   </trkpt>
   <trkpt lat="53.4639300" lon="-10.0283230">
    <ele>33.6</ele>
    <time>2025-12-25T13:15:30Z</time>
   </trkpt>
   <trkpt lat="53.4639670" lon="-10.0283920">
    <ele>33.8</ele>
    <time>2025-12-25T13:15:35Z</time>
   </trkpt>
   <trkpt lat="53.4640140" lon="-10.0284400">
    <ele>34.4</ele>
    <time>2025-12-25T13:15:40Z</time>
   </trkpt>
   <trkpt lat="53.4640590" lon="-10.0285050">
    <ele>34.9</ele>
    <time>2025-12-25T13:15:45Z</time>
   </trkpt>
   <trkpt lat="53.4641020" lon="-10.0285420">
    <ele>35.2</ele>
    <time>2025-12-25T13:15:51Z</time>
   </trkpt>
   <trkpt lat="53.4641380" lon="-10.0285920">
    <ele>36.1</ele>
    <time>2025-12-25T13:17:28Z</time>
   </trkpt>
   <trkpt lat="53.4641930" lon="-10.0287070">
    <ele>35.9</ele>
    <time>2025-12-25T13:17:33Z</time>
   </trkpt>
   <trkpt lat="53.4642230" lon="-10.0287960">
    <ele>35.7</ele>
    <time>2025-12-25T13:17:38Z</time>
   </trkpt>
   <trkpt lat="53.4642470" lon="-10.0288870">
    <ele>36.0</ele>
    <time>2025-12-25T13:17:43Z</time>
   </trkpt>
   <trkpt lat="53.4642530" lon="-10.0289880">
    <ele>36.4</ele>
    <time>2025-12-25T13:17:49Z</time>
   </trkpt>
   <trkpt lat="53.4643120" lon="-10.0290610">
    <ele>37.2</ele>
    <time>2025-12-25T13:17:55Z</time>
   </trkpt>
   <trkpt lat="53.4643530" lon="-10.0291450">
    <ele>37.7</ele>
    <time>2025-12-25T13:18:00Z</time>
   </trkpt>
   <trkpt lat="53.4643950" lon="-10.0292310">
    <ele>37.6</ele>
    <time>2025-12-25T13:18:05Z</time>
   </trkpt>
   <trkpt lat="53.4644250" lon="-10.0293080">
    <ele>37.8</ele>
    <time>2025-12-25T13:18:10Z</time>
   </trkpt>
   <trkpt lat="53.4644740" lon="-10.0293630">
    <ele>38.2</ele>
    <time>2025-12-25T13:18:15Z</time>
   </trkpt>
   <trkpt lat="53.4645220" lon="-10.0294260">
    <ele>38.9</ele>
    <time>2025-12-25T13:18:21Z</time>
   </trkpt>
   <trkpt lat="53.4645800" lon="-10.0294840">
    <ele>39.7</ele>
    <time>2025-12-25T13:18:26Z</time>
   </trkpt>
   <trkpt lat="53.4646370" lon="-10.0295520">
    <ele>40.1</ele>
    <time>2025-12-25T13:18:31Z</time>
   </trkpt>
   <trkpt lat="53.4646920" lon="-10.0295930">
    <ele>40.0</ele>
    <time>2025-12-25T13:18:36Z</time>
   </trkpt>
   <trkpt lat="53.4647420" lon="-10.0296470">
    <ele>40.1</ele>
    <time>2025-12-25T13:18:41Z</time>
   </trkpt>
   <trkpt lat="53.4647930" lon="-10.0297010">
    <ele>40.1</ele>
    <time>2025-12-25T13:18:47Z</time>
   </trkpt>
   <trkpt lat="53.4648500" lon="-10.0297040">
    <ele>40.1</ele>
    <time>2025-12-25T13:18:52Z</time>
   </trkpt>
   <trkpt lat="53.4648860" lon="-10.0297620">
    <ele>40.3</ele>
    <time>2025-12-25T13:19:00Z</time>
   </trkpt>
   <trkpt lat="53.4649470" lon="-10.0298650">
    <ele>40.2</ele>
    <time>2025-12-25T13:19:05Z</time>
   </trkpt>
   <trkpt lat="53.4650190" lon="-10.0299160">
    <ele>40.3</ele>
    <time>2025-12-25T13:19:10Z</time>
   </trkpt>
   <trkpt lat="53.4650810" lon="-10.0299640">
    <ele>40.8</ele>
    <time>2025-12-25T13:19:16Z</time>
   </trkpt>
   <trkpt lat="53.4651440" lon="-10.0300290">
    <ele>41.6</ele>
    <time>2025-12-25T13:19:21Z</time>
   </trkpt>
   <trkpt lat="53.4651980" lon="-10.0300970">
    <ele>42.7</ele>
    <time>2025-12-25T13:19:26Z</time>
   </trkpt>
   <trkpt lat="53.4652550" lon="-10.0301530">
    <ele>43.1</ele>
    <time>2025-12-25T13:19:31Z</time>
   </trkpt>
   <trkpt lat="53.4653010" lon="-10.0301900">
    <ele>43.5</ele>
    <time>2025-12-25T13:19:37Z</time>
   </trkpt>
   <trkpt lat="53.4653580" lon="-10.0302410">
    <ele>43.8</ele>
    <time>2025-12-25T13:19:42Z</time>
   </trkpt>
   <trkpt lat="53.4654090" lon="-10.0302750">
    <ele>44.2</ele>
    <time>2025-12-25T13:19:47Z</time>
   </trkpt>
   <trkpt lat="53.4654630" lon="-10.0303010">
    <ele>44.9</ele>
    <time>2025-12-25T13:19:53Z</time>
   </trkpt>
   <trkpt lat="53.4655210" lon="-10.0303440">
    <ele>45.6</ele>
    <time>2025-12-25T13:19:58Z</time>
   </trkpt>
   <trkpt lat="53.4655800" lon="-10.0303810">
    <ele>45.9</ele>
    <time>2025-12-25T13:20:03Z</time>
   </trkpt>
   <trkpt lat="53.4656310" lon="-10.0304280">
    <ele>46.1</ele>
    <time>2025-12-25T13:20:08Z</time>
   </trkpt>
   <trkpt lat="53.4656890" lon="-10.0304770">
    <ele>46.5</ele>
    <time>2025-12-25T13:20:14Z</time>
   </trkpt>
   <trkpt lat="53.4657380" lon="-10.0305270">
    <ele>46.9</ele>
    <time>2025-12-25T13:20:19Z</time>
   </trkpt>
   <trkpt lat="53.4657890" lon="-10.0305850">
    <ele>47.5</ele>
    <time>2025-12-25T13:20:24Z</time>
   </trkpt>
   <trkpt lat="53.4658300" lon="-10.0306350">
    <ele>47.7</ele>
    <time>2025-12-25T13:20:29Z</time>
   </trkpt>
   <trkpt lat="53.4658770" lon="-10.0307010">
    <ele>48.0</ele>
    <time>2025-12-25T13:20:34Z</time>
   </trkpt>
   <trkpt lat="53.4659310" lon="-10.0307740">
    <ele>48.5</ele>
    <time>2025-12-25T13:20:40Z</time>
   </trkpt>
   <trkpt lat="53.4659830" lon="-10.0308390">
    <ele>49.1</ele>
    <time>2025-12-25T13:20:45Z</time>
   </trkpt>
   <trkpt lat="53.4660280" lon="-10.0308860">
    <ele>49.8</ele>
    <time>2025-12-25T13:20:50Z</time>
   </trkpt>
   <trkpt lat="53.4660820" lon="-10.0309260">
    <ele>50.3</ele>
    <time>2025-12-25T13:20:55Z</time>
   </trkpt>
   <trkpt lat="53.4661340" lon="-10.0310000">
    <ele>50.7</ele>
    <time>2025-12-25T13:21:01Z</time>
   </trkpt>
   <trkpt lat="53.4661810" lon="-10.0310440">
    <ele>51.0</ele>
    <time>2025-12-25T13:21:06Z</time>
   </trkpt>
   <trkpt lat="53.4662450" lon="-10.0310800">
    <ele>51.2</ele>
    <time>2025-12-25T13:21:11Z</time>
   </trkpt>
   <trkpt lat="53.4662950" lon="-10.0311420">
    <ele>51.4</ele>
    <time>2025-12-25T13:21:16Z</time>
   </trkpt>
   <trkpt lat="53.4663410" lon="-10.0312050">
    <ele>51.6</ele>
    <time>2025-12-25T13:21:21Z</time>
   </trkpt>
   <trkpt lat="53.4663880" lon="-10.0312640">
    <ele>52.1</ele>
    <time>2025-12-25T13:21:26Z</time>
   </trkpt>
   <trkpt lat="53.4664320" lon="-10.0313310">
    <ele>52.6</ele>
    <time>2025-12-25T13:21:32Z</time>
   </trkpt>
   <trkpt lat="53.4664800" lon="-10.0314110">
    <ele>52.8</ele>
    <time>2025-12-25T13:21:37Z</time>
   </trkpt>
   <trkpt lat="53.4665190" lon="-10.0314920">
    <ele>53.0</ele>
    <time>2025-12-25T13:21:42Z</time>
   </trkpt>
   <trkpt lat="53.4665590" lon="-10.0315670">
    <ele>52.9</ele>
    <time>2025-12-25T13:21:47Z</time>
   </trkpt>
   <trkpt lat="53.4665940" lon="-10.0316510">
    <ele>53.0</ele>
    <time>2025-12-25T13:21:52Z</time>
   </trkpt>
   <trkpt lat="53.4666260" lon="-10.0317300">
    <ele>53.4</ele>
    <time>2025-12-25T13:21:57Z</time>
   </trkpt>
   <trkpt lat="53.4666610" lon="-10.0318150">
    <ele>53.5</ele>
    <time>2025-12-25T13:22:02Z</time>
   </trkpt>
   <trkpt lat="53.4666990" lon="-10.0318970">
    <ele>53.4</ele>
    <time>2025-12-25T13:22:07Z</time>
   </trkpt>
   <trkpt lat="53.4667280" lon="-10.0319870">
    <ele>53.7</ele>
    <time>2025-12-25T13:22:12Z</time>
   </trkpt>
   <trkpt lat="53.4667650" lon="-10.0320790">
    <ele>53.8</ele>
    <time>2025-12-25T13:22:17Z</time>
   </trkpt>
   <trkpt lat="53.4667990" lon="-10.0321720">
    <ele>53.7</ele>
    <time>2025-12-25T13:22:22Z</time>
   </trkpt>
   <trkpt lat="53.4668340" lon="-10.0322590">
    <ele>53.7</ele>
    <time>2025-12-25T13:22:28Z</time>
   </trkpt>
   <trkpt lat="53.4668610" lon="-10.0323530">
    <ele>53.6</ele>
    <time>2025-12-25T13:22:33Z</time>
   </trkpt>
   <trkpt lat="53.4669020" lon="-10.0324240">
    <ele>53.7</ele>
    <time>2025-12-25T13:22:38Z</time>
   </trkpt>
   <trkpt lat="53.4669160" lon="-10.0325010">
    <ele>54.1</ele>
    <time>2025-12-25T13:22:44Z</time>
   </trkpt>
   <trkpt lat="53.4669400" lon="-10.0326090">
    <ele>54.4</ele>
    <time>2025-12-25T13:22:49Z</time>
   </trkpt>
   <trkpt lat="53.4669820" lon="-10.0327010">
    <ele>54.8</ele>
    <time>2025-12-25T13:22:54Z</time>
   </trkpt>
   <trkpt lat="53.4670350" lon="-10.0327710">
    <ele>55.2</ele>
    <time>2025-12-25T13:22:59Z</time>
   </trkpt>
   <trkpt lat="53.4671080" lon="-10.0327630">
    <ele>55.6</ele>
    <time>2025-12-25T13:23:05Z</time>
   </trkpt>
   <trkpt lat="53.4671580" lon="-10.0326890">
    <ele>56.2</ele>
    <time>2025-12-25T13:23:10Z</time>
   </trkpt>
   <trkpt lat="53.4671120" lon="-10.0327310">
    <ele>57.1</ele>
    <time>2025-12-25T13:26:38Z</time>
   </trkpt>
   <trkpt lat="53.4670670" lon="-10.0327570">
    <ele>57.3</ele>
    <time>2025-12-25T13:26:45Z</time>
   </trkpt>
   <trkpt lat="53.4670380" lon="-10.0328200">
    <ele>56.5</ele>
    <time>2025-12-25T13:26:51Z</time>
   </trkpt>
   <trkpt lat="53.4669930" lon="-10.0328880">
    <ele>56.1</ele>
    <time>2025-12-25T13:26:57Z</time>
   </trkpt>
   <trkpt lat="53.4670300" lon="-10.0328410">
    <ele>56.3</ele>
    <time>2025-12-25T13:27:26Z</time>
   </trkpt>
   <trkpt lat="53.4669800" lon="-10.0329040">
    <ele>55.9</ele>
    <time>2025-12-25T13:27:43Z</time>
   </trkpt>
   <trkpt lat="53.4669400" lon="-10.0330290">
    <ele>56.1</ele>
    <time>2025-12-25T13:27:48Z</time>
   </trkpt>
   <trkpt lat="53.4669790" lon="-10.0331470">
    <ele>56.4</ele>
    <time>2025-12-25T13:27:53Z</time>
   </trkpt>
   <trkpt lat="53.4669420" lon="-10.0331900">
    <ele>55.8</ele>
    <time>2025-12-25T13:29:33Z</time>
   </trkpt>
   <trkpt lat="53.4669560" lon="-10.0331170">
    <ele>55.7</ele>
    <time>2025-12-25T13:29:52Z</time>
   </trkpt>
   <trkpt lat="53.4669530" lon="-10.0330270">
    <ele>55.9</ele>
    <time>2025-12-25T13:29:58Z</time>
   </trkpt>
   <trkpt lat="53.4669640" lon="-10.0331040">
    <ele>56.6</ele>
    <time>2025-12-25T13:30:18Z</time>
   </trkpt>
   <trkpt lat="53.4669950" lon="-10.0330250">
    <ele>56.3</ele>
    <time>2025-12-25T13:30:59Z</time>
   </trkpt>
   <trkpt lat="53.4670190" lon="-10.0329560">
    <ele>58.5</ele>
    <time>2025-12-25T13:49:47Z</time>
   </trkpt>
   <trkpt lat="53.4670520" lon="-10.0328900">
    <ele>58.0</ele>
    <time>2025-12-25T13:49:52Z</time>
   </trkpt>
   <trkpt lat="53.4671020" lon="-10.0327690">
    <ele>57.1</ele>
    <time>2025-12-25T13:49:58Z</time>
   </trkpt>
   <trkpt lat="53.4671490" lon="-10.0327020">
    <ele>56.8</ele>
    <time>2025-12-25T13:50:03Z</time>
   </trkpt>
   <trkpt lat="53.4671770" lon="-10.0326260">
    <ele>56.7</ele>
    <time>2025-12-25T13:50:08Z</time>
   </trkpt>
   <trkpt lat="53.4671350" lon="-10.0326580">
    <ele>57.0</ele>
    <time>2025-12-25T13:50:27Z</time>
   </trkpt>
   <trkpt lat="53.4670510" lon="-10.0327390">
    <ele>57.0</ele>
    <time>2025-12-25T13:50:32Z</time>
   </trkpt>
   <trkpt lat="53.4670020" lon="-10.0326600">
    <ele>56.8</ele>
    <time>2025-12-25T13:50:38Z</time>
   </trkpt>
   <trkpt lat="53.4669540" lon="-10.0325560">
    <ele>56.4</ele>
    <time>2025-12-25T13:50:43Z</time>
   </trkpt>
   <trkpt lat="53.4669290" lon="-10.0324610">
    <ele>55.9</ele>
    <time>2025-12-25T13:50:48Z</time>
   </trkpt>
   <trkpt lat="53.4669050" lon="-10.0323890">
    <ele>55.4</ele>
    <time>2025-12-25T13:50:54Z</time>
   </trkpt>
   <trkpt lat="53.4668550" lon="-10.0323500">
    <ele>55.0</ele>
    <time>2025-12-25T13:50:59Z</time>
   </trkpt>
   <trkpt lat="53.4668290" lon="-10.0322090">
    <ele>54.6</ele>
    <time>2025-12-25T13:51:05Z</time>
   </trkpt>
   <trkpt lat="53.4667850" lon="-10.0320960">
    <ele>54.2</ele>
    <time>2025-12-25T13:51:10Z</time>
   </trkpt>
   <trkpt lat="53.4667360" lon="-10.0319940">
    <ele>54.0</ele>
    <time>2025-12-25T13:51:15Z</time>
   </trkpt>
   <trkpt lat="53.4666990" lon="-10.0318850">
    <ele>53.8</ele>
    <time>2025-12-25T13:51:21Z</time>
   </trkpt>
   <trkpt lat="53.4666450" lon="-10.0317990">
    <ele>53.8</ele>
    <time>2025-12-25T13:51:26Z</time>
   </trkpt>
   <trkpt lat="53.4666150" lon="-10.0316930">
    <ele>53.6</ele>
    <time>2025-12-25T13:51:32Z</time>
   </trkpt>
   <trkpt lat="53.4665690" lon="-10.0316040">
    <ele>53.5</ele>
    <time>2025-12-25T13:51:37Z</time>
   </trkpt>
   <trkpt lat="53.4665250" lon="-10.0314910">
    <ele>53.2</ele>
    <time>2025-12-25T13:51:43Z</time>
   </trkpt>
   <trkpt lat="53.4664690" lon="-10.0314140">
    <ele>52.9</ele>
    <time>2025-12-25T13:51:48Z</time>
   </trkpt>
   <trkpt lat="53.4664350" lon="-10.0313640">
    <ele>53.0</ele>
    <time>2025-12-25T13:51:53Z</time>
   </trkpt>
   <trkpt lat="53.4663900" lon="-10.0313070">
    <ele>53.0</ele>
    <time>2025-12-25T13:51:59Z</time>
   </trkpt>
   <trkpt lat="53.4663430" lon="-10.0312360">
    <ele>52.8</ele>
    <time>2025-12-25T13:52:04Z</time>
   </trkpt>
   <trkpt lat="53.4662980" lon="-10.0311870">
    <ele>52.4</ele>
    <time>2025-12-25T13:53:39Z</time>
   </trkpt>
   <trkpt lat="53.4662470" lon="-10.0311110">
    <ele>52.3</ele>
    <time>2025-12-25T13:53:44Z</time>
   </trkpt>
   <trkpt lat="53.4661710" lon="-10.0310150">
    <ele>52.0</ele>
    <time>2025-12-25T13:53:50Z</time>
   </trkpt>
   <trkpt lat="53.4661020" lon="-10.0309660">
    <ele>51.6</ele>
    <time>2025-12-25T13:53:55Z</time>
   </trkpt>
   <trkpt lat="53.4660480" lon="-10.0309030">
    <ele>51.2</ele>
    <time>2025-12-25T13:54:00Z</time>
   </trkpt>
   <trkpt lat="53.4659890" lon="-10.0308190">
    <ele>50.9</ele>
    <time>2025-12-25T13:54:05Z</time>
   </trkpt>
   <trkpt lat="53.4659190" lon="-10.0307260">
    <ele>50.3</ele>
    <time>2025-12-25T13:54:10Z</time>
   </trkpt>
   <trkpt lat="53.4658560" lon="-10.0306350">
    <ele>49.6</ele>
    <time>2025-12-25T13:54:15Z</time>
   </trkpt>
   <trkpt lat="53.4657930" lon="-10.0305470">
    <ele>49.2</ele>
    <time>2025-12-25T13:54:21Z</time>
   </trkpt>
   <trkpt lat="53.4657260" lon="-10.0304850">
    <ele>48.7</ele>
    <time>2025-12-25T13:54:26Z</time>
   </trkpt>
   <trkpt lat="53.4656560" lon="-10.0304320">
    <ele>47.9</ele>
    <time>2025-12-25T13:54:31Z</time>
   </trkpt>
   <trkpt lat="53.4655880" lon="-10.0303670">
    <ele>47.3</ele>
    <time>2025-12-25T13:54:36Z</time>
   </trkpt>
   <trkpt lat="53.4655120" lon="-10.0303020">
    <ele>46.5</ele>
    <time>2025-12-25T13:54:41Z</time>
   </trkpt>
   <trkpt lat="53.4654510" lon="-10.0302790">
    <ele>46.1</ele>
    <time>2025-12-25T13:54:46Z</time>
   </trkpt>
   <trkpt lat="53.4653740" lon="-10.0302330">
    <ele>46.0</ele>
    <time>2025-12-25T13:54:51Z</time>
   </trkpt>
   <trkpt lat="53.4653020" lon="-10.0301710">
    <ele>45.4</ele>
    <time>2025-12-25T13:54:57Z</time>
   </trkpt>
   <trkpt lat="53.4652140" lon="-10.0300960">
    <ele>44.8</ele>
    <time>2025-12-25T13:55:02Z</time>
   </trkpt>
   <trkpt lat="53.4651390" lon="-10.0300280">
    <ele>44.0</ele>
    <time>2025-12-25T13:55:07Z</time>
   </trkpt>
   <trkpt lat="53.4650730" lon="-10.0299600">
    <ele>43.3</ele>
    <time>2025-12-25T13:55:12Z</time>
   </trkpt>
   <trkpt lat="53.4650070" lon="-10.0298760">
    <ele>42.7</ele>
    <time>2025-12-25T13:55:18Z</time>
   </trkpt>
   <trkpt lat="53.4649470" lon="-10.0298060">
    <ele>41.8</ele>
    <time>2025-12-25T13:55:23Z</time>
   </trkpt>
   <trkpt lat="53.4648780" lon="-10.0297480">
    <ele>40.8</ele>
    <time>2025-12-25T13:55:28Z</time>
   </trkpt>
   <trkpt lat="53.4648090" lon="-10.0296770">
    <ele>40.2</ele>
    <time>2025-12-25T13:55:33Z</time>
   </trkpt>
   <trkpt lat="53.4647400" lon="-10.0296270">
    <ele>39.8</ele>
    <time>2025-12-25T13:55:38Z</time>
   </trkpt>
   <trkpt lat="53.4646800" lon="-10.0295690">
    <ele>39.7</ele>
    <time>2025-12-25T13:55:43Z</time>
   </trkpt>
   <trkpt lat="53.4646070" lon="-10.0295090">
    <ele>39.6</ele>
    <time>2025-12-25T13:55:48Z</time>
   </trkpt>
   <trkpt lat="53.4645380" lon="-10.0294410">
    <ele>39.5</ele>
    <time>2025-12-25T13:55:53Z</time>
   </trkpt>
   <trkpt lat="53.4644770" lon="-10.0293780">
    <ele>39.4</ele>
    <time>2025-12-25T13:55:58Z</time>
   </trkpt>
   <trkpt lat="53.4644050" lon="-10.0293010">
    <ele>39.0</ele>
    <time>2025-12-25T13:56:03Z</time>
   </trkpt>
   <trkpt lat="53.4643510" lon="-10.0291990">
    <ele>38.5</ele>
    <time>2025-12-25T13:56:08Z</time>
   </trkpt>
   <trkpt lat="53.4643180" lon="-10.0290900">
    <ele>37.9</ele>
    <time>2025-12-25T13:56:14Z</time>
   </trkpt>
   <trkpt lat="53.4642880" lon="-10.0289690">
    <ele>37.2</ele>
    <time>2025-12-25T13:56:19Z</time>
   </trkpt>
   <trkpt lat="53.4642420" lon="-10.0288550">
    <ele>36.4</ele>
    <time>2025-12-25T13:56:24Z</time>
   </trkpt>
   <trkpt lat="53.4642010" lon="-10.0287330">
    <ele>35.9</ele>
    <time>2025-12-25T13:56:29Z</time>
   </trkpt>
   <trkpt lat="53.4641490" lon="-10.0286410">
    <ele>35.6</ele>
    <time>2025-12-25T13:56:34Z</time>
   </trkpt>
   <trkpt lat="53.4641150" lon="-10.0285430">
    <ele>35.2</ele>
    <time>2025-12-25T13:56:39Z</time>
   </trkpt>
   <trkpt lat="53.4641020" lon="-10.0284690">
    <ele>34.3</ele>
    <time>2025-12-25T13:58:08Z</time>
   </trkpt>
   <trkpt lat="53.4640340" lon="-10.0283770">
    <ele>34.2</ele>
    <time>2025-12-25T13:58:14Z</time>
   </trkpt>
   <trkpt lat="53.4639840" lon="-10.0283430">
    <ele>33.4</ele>
    <time>2025-12-25T13:58:22Z</time>
   </trkpt>
   <trkpt lat="53.4639120" lon="-10.0282440">
    <ele>33.0</ele>
    <time>2025-12-25T13:58:27Z</time>
   </trkpt>
   <trkpt lat="53.4638610" lon="-10.0281630">
    <ele>32.6</ele>
    <time>2025-12-25T13:58:33Z</time>
   </trkpt>
   <trkpt lat="53.4638240" lon="-10.0281210">
    <ele>32.2</ele>
    <time>2025-12-25T13:58:39Z</time>
   </trkpt>
   <trkpt lat="53.4637790" lon="-10.0281000">
    <ele>31.7</ele>
    <time>2025-12-25T13:58:51Z</time>
   </trkpt>
   <trkpt lat="53.4637080" lon="-10.0280510">
    <ele>31.4</ele>
    <time>2025-12-25T13:58:56Z</time>
   </trkpt>
   <trkpt lat="53.4636850" lon="-10.0279420">
    <ele>31.1</ele>
    <time>2025-12-25T13:59:01Z</time>
   </trkpt>
   <trkpt lat="53.4636580" lon="-10.0278790">
    <ele>30.8</ele>
    <time>2025-12-25T13:59:08Z</time>
   </trkpt>
   <trkpt lat="53.4635700" lon="-10.0278140">
    <ele>30.3</ele>
    <time>2025-12-25T13:59:13Z</time>
   </trkpt>
   <trkpt lat="53.4635340" lon="-10.0276780">
    <ele>29.8</ele>
    <time>2025-12-25T13:59:19Z</time>
   </trkpt>
   <trkpt lat="53.4634840" lon="-10.0275870">
    <ele>29.5</ele>
    <time>2025-12-25T13:59:24Z</time>
   </trkpt>
   <trkpt lat="53.4634390" lon="-10.0274820">
    <ele>29.1</ele>
    <time>2025-12-25T13:59:29Z</time>
   </trkpt>
   <trkpt lat="53.4633950" lon="-10.0273850">
    <ele>28.9</ele>
    <time>2025-12-25T13:59:35Z</time>
   </trkpt>
   <trkpt lat="53.4633330" lon="-10.0273270">
    <ele>28.5</ele>
    <time>2025-12-25T13:59:40Z</time>
   </trkpt>
   <trkpt lat="53.4632840" lon="-10.0272450">
    <ele>28.0</ele>
    <time>2025-12-25T13:59:45Z</time>
   </trkpt>
   <trkpt lat="53.4632370" lon="-10.0271600">
    <ele>27.7</ele>
    <time>2025-12-25T13:59:51Z</time>
   </trkpt>
   <trkpt lat="53.4631830" lon="-10.0270670">
    <ele>27.4</ele>
    <time>2025-12-25T13:59:56Z</time>
   </trkpt>
   <trkpt lat="53.4631230" lon="-10.0269650">
    <ele>27.0</ele>
    <time>2025-12-25T14:00:01Z</time>
   </trkpt>
   <trkpt lat="53.4630750" lon="-10.0268920">
    <ele>26.5</ele>
    <time>2025-12-25T14:00:07Z</time>
   </trkpt>
   <trkpt lat="53.4630300" lon="-10.0268090">
    <ele>26.1</ele>
    <time>2025-12-25T14:00:12Z</time>
   </trkpt>
   <trkpt lat="53.4629870" lon="-10.0267010">
    <ele>25.9</ele>
    <time>2025-12-25T14:00:18Z</time>
   </trkpt>
   <trkpt lat="53.4629490" lon="-10.0265870">
    <ele>25.6</ele>
    <time>2025-12-25T14:00:23Z</time>
   </trkpt>
   <trkpt lat="53.4629170" lon="-10.0264950">
    <ele>25.1</ele>
    <time>2025-12-25T14:00:28Z</time>
   </trkpt>
   <trkpt lat="53.4628710" lon="-10.0264070">
    <ele>24.5</ele>
    <time>2025-12-25T14:00:34Z</time>
   </trkpt>
   <trkpt lat="53.4628420" lon="-10.0263130">
    <ele>23.8</ele>
    <time>2025-12-25T14:00:39Z</time>
   </trkpt>
   <trkpt lat="53.4628060" lon="-10.0262270">
    <ele>23.0</ele>
    <time>2025-12-25T14:00:45Z</time>
   </trkpt>
   <trkpt lat="53.4627760" lon="-10.0261380">
    <ele>22.3</ele>
    <time>2025-12-25T14:00:50Z</time>
   </trkpt>
   <trkpt lat="53.4627280" lon="-10.0260130">
    <ele>21.9</ele>
    <time>2025-12-25T14:00:56Z</time>
   </trkpt>
   <trkpt lat="53.4626870" lon="-10.0258940">
    <ele>21.8</ele>
    <time>2025-12-25T14:01:01Z</time>
   </trkpt>
   <trkpt lat="53.4626380" lon="-10.0257940">
    <ele>21.9</ele>
    <time>2025-12-25T14:01:06Z</time>
   </trkpt>
   <trkpt lat="53.4626020" lon="-10.0257200">
    <ele>22.0</ele>
    <time>2025-12-25T14:01:11Z</time>
   </trkpt>
   <trkpt lat="53.4625680" lon="-10.0256400">
    <ele>22.0</ele>
    <time>2025-12-25T14:01:16Z</time>
   </trkpt>
   <trkpt lat="53.4625240" lon="-10.0255330">
    <ele>22.0</ele>
    <time>2025-12-25T14:01:22Z</time>
   </trkpt>
   <trkpt lat="53.4625000" lon="-10.0254270">
    <ele>21.9</ele>
    <time>2025-12-25T14:01:27Z</time>
   </trkpt>
   <trkpt lat="53.4624590" lon="-10.0253400">
    <ele>21.5</ele>
    <time>2025-12-25T14:01:32Z</time>
   </trkpt>
   <trkpt lat="53.4624120" lon="-10.0252510">
    <ele>21.2</ele>
    <time>2025-12-25T14:01:38Z</time>
   </trkpt>
   <trkpt lat="53.4623780" lon="-10.0251570">
    <ele>21.0</ele>
    <time>2025-12-25T14:01:43Z</time>
   </trkpt>
   <trkpt lat="53.4623380" lon="-10.0250700">
    <ele>20.8</ele>
    <time>2025-12-25T14:01:48Z</time>
   </trkpt>
   <trkpt lat="53.4623140" lon="-10.0249570">
    <ele>21.4</ele>
    <time>2025-12-25T14:01:54Z</time>
   </trkpt>
   <trkpt lat="53.4622860" lon="-10.0248560">
    <ele>21.0</ele>
    <time>2025-12-25T14:01:59Z</time>
   </trkpt>
   <trkpt lat="53.4622510" lon="-10.0247490">
    <ele>20.6</ele>
    <time>2025-12-25T14:02:04Z</time>
   </trkpt>
   <trkpt lat="53.4622300" lon="-10.0246300">
    <ele>20.2</ele>
    <time>2025-12-25T14:02:09Z</time>
   </trkpt>
   <trkpt lat="53.4622010" lon="-10.0245330">
    <ele>19.8</ele>
    <time>2025-12-25T14:02:15Z</time>
   </trkpt>
   <trkpt lat="53.4621670" lon="-10.0244250">
    <ele>19.2</ele>
    <time>2025-12-25T14:02:20Z</time>
   </trkpt>
   <trkpt lat="53.4621260" lon="-10.0243210">
    <ele>18.4</ele>
    <time>2025-12-25T14:02:26Z</time>
   </trkpt>
   <trkpt lat="53.4620670" lon="-10.0242160">
    <ele>17.6</ele>
    <time>2025-12-25T14:02:31Z</time>
   </trkpt>
   <trkpt lat="53.4620280" lon="-10.0241140">
    <ele>16.9</ele>
    <time>2025-12-25T14:02:37Z</time>
   </trkpt>
   <trkpt lat="53.4619910" lon="-10.0240290">
    <ele>16.3</ele>
    <time>2025-12-25T14:02:42Z</time>
   </trkpt>
   <trkpt lat="53.4619480" lon="-10.0239320">
    <ele>15.7</ele>
    <time>2025-12-25T14:02:48Z</time>
   </trkpt>
   <trkpt lat="53.4618930" lon="-10.0238260">
    <ele>15.1</ele>
    <time>2025-12-25T14:02:53Z</time>
   </trkpt>
   <trkpt lat="53.4618540" lon="-10.0237290">
    <ele>14.4</ele>
    <time>2025-12-25T14:02:59Z</time>
   </trkpt>
   <trkpt lat="53.4618130" lon="-10.0236250">
    <ele>13.7</ele>
    <time>2025-12-25T14:03:04Z</time>
   </trkpt>
   <trkpt lat="53.4617690" lon="-10.0235380">
    <ele>13.1</ele>
    <time>2025-12-25T14:03:09Z</time>
   </trkpt>
   <trkpt lat="53.4617180" lon="-10.0234380">
    <ele>12.8</ele>
    <time>2025-12-25T14:03:15Z</time>
   </trkpt>
   <trkpt lat="53.4616660" lon="-10.0233410">
    <ele>12.6</ele>
    <time>2025-12-25T14:03:20Z</time>
   </trkpt>
   <trkpt lat="53.4616080" lon="-10.0232680">
    <ele>12.4</ele>
    <time>2025-12-25T14:03:26Z</time>
   </trkpt>
   <trkpt lat="53.4615640" lon="-10.0232260">
    <ele>12.3</ele>
    <time>2025-12-25T14:03:31Z</time>
   </trkpt>
   <trkpt lat="53.4615260" lon="-10.0233000">
    <ele>12.1</ele>
    <time>2025-12-25T14:03:36Z</time>
   </trkpt>
   <trkpt lat="53.4614720" lon="-10.0233840">
    <ele>11.9</ele>
    <time>2025-12-25T14:03:41Z</time>
   </trkpt>
   <trkpt lat="53.4614200" lon="-10.0234200">
    <ele>11.8</ele>
    <time>2025-12-25T14:03:47Z</time>
   </trkpt>
   <trkpt lat="53.4613610" lon="-10.0233750">
    <ele>11.8</ele>
    <time>2025-12-25T14:03:52Z</time>
   </trkpt>
   <trkpt lat="53.4613260" lon="-10.0232460">
    <ele>11.5</ele>
    <time>2025-12-25T14:03:57Z</time>
   </trkpt>
   <trkpt lat="53.4612880" lon="-10.0231400">
    <ele>11.2</ele>
    <time>2025-12-25T14:04:02Z</time>
   </trkpt>
   <trkpt lat="53.4612330" lon="-10.0230140">
    <ele>10.7</ele>
    <time>2025-12-25T14:04:08Z</time>
   </trkpt>
   <trkpt lat="53.4611840" lon="-10.0230150">
    <ele>10.3</ele>
    <time>2025-12-25T14:04:14Z</time>
   </trkpt>
   <trkpt lat="53.4611030" lon="-10.0230540">
    <ele>10.0</ele>
    <time>2025-12-25T14:04:20Z</time>
   </trkpt>
   <trkpt lat="53.4610350" lon="-10.0230540">
    <ele>9.6</ele>
    <time>2025-12-25T14:04:25Z</time>
   </trkpt>
   <trkpt lat="53.4609670" lon="-10.0230500">
    <ele>9.4</ele>
    <time>2025-12-25T14:04:31Z</time>
   </trkpt>
   <trkpt lat="53.4609190" lon="-10.0230150">
    <ele>9.3</ele>
    <time>2025-12-25T14:04:36Z</time>
   </trkpt>
   <trkpt lat="53.4609590" lon="-10.0230530">
    <ele>9.1</ele>
    <time>2025-12-25T14:04:45Z</time>
   </trkpt>
   <trkpt lat="53.4609130" lon="-10.0230890">
    <ele>8.8</ele>
    <time>2025-12-25T14:05:05Z</time>
   </trkpt>
   <trkpt lat="53.4608560" lon="-10.0230790">
    <ele>9.0</ele>
    <time>2025-12-25T14:05:11Z</time>
   </trkpt>
   <trkpt lat="53.4608100" lon="-10.0230310">
    <ele>9.3</ele>
    <time>2025-12-25T14:05:16Z</time>
   </trkpt>
   <trkpt lat="53.4607380" lon="-10.0230250">
    <ele>9.4</ele>
    <time>2025-12-25T14:05:21Z</time>
   </trkpt>
   <trkpt lat="53.4606770" lon="-10.0229970">
    <ele>9.4</ele>
    <time>2025-12-25T14:05:26Z</time>
   </trkpt>
   <trkpt lat="53.4606810" lon="-10.0229130">
    <ele>9.8</ele>
    <time>2025-12-25T14:06:04Z</time>
   </trkpt>
   <trkpt lat="53.4606470" lon="-10.0228040">
    <ele>9.8</ele>
    <time>2025-12-25T14:06:09Z</time>
   </trkpt>
   <trkpt lat="53.4606510" lon="-10.0228790">
    <ele>10.0</ele>
    <time>2025-12-25T14:07:54Z</time>
   </trkpt>
   <trkpt lat="53.4606140" lon="-10.0228370">
    <ele>10.2</ele>
    <time>2025-12-25T14:08:38Z</time>
   </trkpt>
   <trkpt lat="53.4606140" lon="-10.0229210">
    <ele>10.1</ele>
    <time>2025-12-25T14:11:39Z</time>
   </trkpt>
   <trkpt lat="53.4606750" lon="-10.0229100">
    <ele>10.3</ele>
    <time>2025-12-25T14:11:44Z</time>
   </trkpt>
   <trkpt lat="53.4607020" lon="-10.0229860">
    <ele>10.0</ele>
    <time>2025-12-25T14:11:55Z</time>
   </trkpt>
   <trkpt lat="53.4607440" lon="-10.0230750">
    <ele>10.0</ele>
    <time>2025-12-25T14:12:00Z</time>
   </trkpt>
   <trkpt lat="53.4608230" lon="-10.0231120">
    <ele>9.8</ele>
    <time>2025-12-25T14:12:06Z</time>
   </trkpt>
   <trkpt lat="53.4608870" lon="-10.0231190">
    <ele>9.6</ele>
    <time>2025-12-25T14:12:11Z</time>
   </trkpt>
   <trkpt lat="53.4609580" lon="-10.0231180">
    <ele>9.3</ele>
    <time>2025-12-25T14:12:16Z</time>
   </trkpt>
   <trkpt lat="53.4610200" lon="-10.0231090">
    <ele>9.1</ele>
    <time>2025-12-25T14:12:21Z</time>
   </trkpt>
   <trkpt lat="53.4610810" lon="-10.0231030">
    <ele>9.0</ele>
    <time>2025-12-25T14:12:27Z</time>
   </trkpt>
   <trkpt lat="53.4611480" lon="-10.0231070">
    <ele>9.0</ele>
    <time>2025-12-25T14:12:32Z</time>
   </trkpt>
   <trkpt lat="53.4612080" lon="-10.0231070">
    <ele>9.1</ele>
    <time>2025-12-25T14:12:37Z</time>
   </trkpt>
   <trkpt lat="53.4612530" lon="-10.0231440">
    <ele>9.4</ele>
    <time>2025-12-25T14:12:42Z</time>
   </trkpt>
   <trkpt lat="53.4613010" lon="-10.0232170">
    <ele>9.6</ele>
    <time>2025-12-25T14:12:48Z</time>
   </trkpt>
   <trkpt lat="53.4613540" lon="-10.0233060">
    <ele>9.9</ele>
    <time>2025-12-25T14:12:53Z</time>
   </trkpt>
   <trkpt lat="53.4613950" lon="-10.0233990">
    <ele>10.4</ele>
    <time>2025-12-25T14:12:58Z</time>
   </trkpt>
   <trkpt lat="53.4614240" lon="-10.0234720">
    <ele>10.7</ele>
    <time>2025-12-25T14:13:03Z</time>
   </trkpt>
   <trkpt lat="53.4614900" lon="-10.0234220">
    <ele>11.2</ele>
    <time>2025-12-25T14:13:08Z</time>
   </trkpt>
   <trkpt lat="53.4615190" lon="-10.0232550">
    <ele>11.5</ele>
    <time>2025-12-25T14:13:14Z</time>
   </trkpt>
   <trkpt lat="53.4615260" lon="-10.0231150">
    <ele>11.4</ele>
    <time>2025-12-25T14:13:19Z</time>
   </trkpt>
   <trkpt lat="53.4615290" lon="-10.0230100">
    <ele>11.3</ele>
    <time>2025-12-25T14:13:25Z</time>
   </trkpt>
   <trkpt lat="53.4615410" lon="-10.0229100">
    <ele>11.2</ele>
    <time>2025-12-25T14:13:30Z</time>
   </trkpt>
   <trkpt lat="53.4615550" lon="-10.0228180">
    <ele>11.1</ele>
    <time>2025-12-25T14:13:35Z</time>
   </trkpt>
   <trkpt lat="53.4615660" lon="-10.0227020">
    <ele>10.9</ele>
    <time>2025-12-25T14:13:40Z</time>
   </trkpt>
   <trkpt lat="53.4615760" lon="-10.0225820">
    <ele>10.4</ele>
    <time>2025-12-25T14:13:46Z</time>
   </trkpt>
   <trkpt lat="53.4615850" lon="-10.0224500">
    <ele>10.0</ele>
    <time>2025-12-25T14:13:51Z</time>
   </trkpt>
   <trkpt lat="53.4615830" lon="-10.0223420">
    <ele>10.0</ele>
    <time>2025-12-25T14:13:57Z</time>
   </trkpt>
   <trkpt lat="53.4615910" lon="-10.0222360">
    <ele>10.1</ele>
    <time>2025-12-25T14:14:02Z</time>
   </trkpt>
   <trkpt lat="53.4615950" lon="-10.0221000">
    <ele>10.3</ele>
    <time>2025-12-25T14:14:07Z</time>
   </trkpt>
   <trkpt lat="53.4615930" lon="-10.0219910">
    <ele>10.4</ele>
    <time>2025-12-25T14:14:12Z</time>
   </trkpt>
   <trkpt lat="53.4615940" lon="-10.0218820">
    <ele>10.6</ele>
    <time>2025-12-25T14:14:18Z</time>
   </trkpt>
   <trkpt lat="53.4615920" lon="-10.0217960">
    <ele>10.9</ele>
    <time>2025-12-25T14:14:23Z</time>
   </trkpt>
   <trkpt lat="53.4616030" lon="-10.0216820">
    <ele>11.0</ele>
    <time>2025-12-25T14:14:28Z</time>
   </trkpt>
   <trkpt lat="53.4616170" lon="-10.0215690">
    <ele>11.1</ele>
    <time>2025-12-25T14:14:33Z</time>
   </trkpt>
   <trkpt lat="53.4616360" lon="-10.0214460">
    <ele>11.1</ele>
    <time>2025-12-25T14:14:39Z</time>
   </trkpt>
   <trkpt lat="53.4616590" lon="-10.0213480">
    <ele>10.9</ele>
    <time>2025-12-25T14:14:44Z</time>
   </trkpt>
   <trkpt lat="53.4616680" lon="-10.0212160">
    <ele>10.6</ele>
    <time>2025-12-25T14:14:50Z</time>
   </trkpt>
   <trkpt lat="53.4616680" lon="-10.0211330">
    <ele>10.6</ele>
    <time>2025-12-25T14:14:55Z</time>
   </trkpt>
   <trkpt lat="53.4616850" lon="-10.0210550">
    <ele>10.5</ele>
    <time>2025-12-25T14:15:00Z</time>
   </trkpt>
   <trkpt lat="53.4616910" lon="-10.0209330">
    <ele>10.5</ele>
    <time>2025-12-25T14:15:06Z</time>
   </trkpt>
   <trkpt lat="53.4616960" lon="-10.0208140">
    <ele>10.3</ele>
    <time>2025-12-25T14:15:11Z</time>
   </trkpt>
   <trkpt lat="53.4617240" lon="-10.0206810">
    <ele>10.3</ele>
    <time>2025-12-25T14:15:17Z</time>
   </trkpt>
   <trkpt lat="53.4617600" lon="-10.0205810">
    <ele>10.3</ele>
    <time>2025-12-25T14:15:22Z</time>
   </trkpt>
   <trkpt lat="53.4618130" lon="-10.0205090">
    <ele>10.3</ele>
    <time>2025-12-25T14:15:27Z</time>
   </trkpt>
   <trkpt lat="53.4618430" lon="-10.0203840">
    <ele>10.3</ele>
    <time>2025-12-25T14:15:33Z</time>
   </trkpt>
   <trkpt lat="53.4618850" lon="-10.0202760">
    <ele>10.1</ele>
    <time>2025-12-25T14:15:38Z</time>
   </trkpt>
   <trkpt lat="53.4619130" lon="-10.0201780">
    <ele>9.9</ele>
    <time>2025-12-25T14:15:43Z</time>
   </trkpt>
   <trkpt lat="53.4619400" lon="-10.0200760">
    <ele>9.6</ele>
    <time>2025-12-25T14:15:49Z</time>
   </trkpt>
   <trkpt lat="53.4619680" lon="-10.0199950">
    <ele>9.6</ele>
    <time>2025-12-25T14:15:54Z</time>
   </trkpt>
   <trkpt lat="53.4620270" lon="-10.0198940">
    <ele>9.5</ele>
    <time>2025-12-25T14:15:59Z</time>
   </trkpt>
   <trkpt lat="53.4620820" lon="-10.0198160">
    <ele>9.3</ele>
    <time>2025-12-25T14:16:05Z</time>
   </trkpt>
   <trkpt lat="53.4621200" lon="-10.0197210">
    <ele>9.4</ele>
    <time>2025-12-25T14:16:10Z</time>
   </trkpt>
   <trkpt lat="53.4621570" lon="-10.0196440">
    <ele>9.2</ele>
    <time>2025-12-25T14:16:16Z</time>
   </trkpt>
   <trkpt lat="53.4622080" lon="-10.0195640">
    <ele>9.2</ele>
    <time>2025-12-25T14:16:21Z</time>
   </trkpt>
   <trkpt lat="53.4622600" lon="-10.0194790">
    <ele>9.1</ele>
    <time>2025-12-25T14:16:27Z</time>
   </trkpt>
   <trkpt lat="53.4623280" lon="-10.0194250">
    <ele>8.8</ele>
    <time>2025-12-25T14:16:33Z</time>
   </trkpt>
   <trkpt lat="53.4623840" lon="-10.0193800">
    <ele>8.7</ele>
    <time>2025-12-25T14:16:38Z</time>
   </trkpt>
   <trkpt lat="53.4624430" lon="-10.0193460">
    <ele>8.4</ele>
    <time>2025-12-25T14:16:43Z</time>
   </trkpt>
   <trkpt lat="53.4625050" lon="-10.0193090">
    <ele>8.2</ele>
    <time>2025-12-25T14:16:49Z</time>
   </trkpt>
   <trkpt lat="53.4625610" lon="-10.0192810">
    <ele>7.9</ele>
    <time>2025-12-25T14:16:54Z</time>
   </trkpt>
   <trkpt lat="53.4626220" lon="-10.0192700">
    <ele>7.6</ele>
    <time>2025-12-25T14:16:59Z</time>
   </trkpt>
   <trkpt lat="53.4627020" lon="-10.0192530">
    <ele>7.6</ele>
    <time>2025-12-25T14:17:05Z</time>
   </trkpt>
   <trkpt lat="53.4627780" lon="-10.0192430">
    <ele>7.3</ele>
    <time>2025-12-25T14:17:10Z</time>
   </trkpt>
   <trkpt lat="53.4628640" lon="-10.0192350">
    <ele>6.9</ele>
    <time>2025-12-25T14:17:16Z</time>
   </trkpt>
   <trkpt lat="53.4629380" lon="-10.0192010">
    <ele>6.6</ele>
    <time>2025-12-25T14:17:21Z</time>
   </trkpt>
   <trkpt lat="53.4630000" lon="-10.0191830">
    <ele>6.3</ele>
    <time>2025-12-25T14:17:27Z</time>
   </trkpt>
   <trkpt lat="53.4630550" lon="-10.0191700">
    <ele>5.9</ele>
    <time>2025-12-25T14:17:32Z</time>
   </trkpt>
   <trkpt lat="53.4631060" lon="-10.0191140">
    <ele>5.9</ele>
    <time>2025-12-25T14:17:38Z</time>
   </trkpt>
   <trkpt lat="53.4631420" lon="-10.0190520">
    <ele>6.0</ele>
    <time>2025-12-25T14:17:55Z</time>
   </trkpt>
   <trkpt lat="53.4632310" lon="-10.0190150">
    <ele>6.1</ele>
    <time>2025-12-25T14:18:00Z</time>
   </trkpt>
   <trkpt lat="53.4633070" lon="-10.0189600">
    <ele>6.1</ele>
    <time>2025-12-25T14:18:06Z</time>
   </trkpt>
   <trkpt lat="53.4633520" lon="-10.0189900">
    <ele>6.1</ele>
    <time>2025-12-25T14:18:16Z</time>
   </trkpt>
   <trkpt lat="53.4634470" lon="-10.0188940">
    <ele>6.1</ele>
    <time>2025-12-25T14:18:22Z</time>
   </trkpt>
   <trkpt lat="53.4635000" lon="-10.0187520">
    <ele>6.0</ele>
    <time>2025-12-25T14:18:28Z</time>
   </trkpt>
   <trkpt lat="53.4635260" lon="-10.0186400">
    <ele>6.0</ele>
    <time>2025-12-25T14:18:33Z</time>
   </trkpt>
   <trkpt lat="53.4635680" lon="-10.0185890">
    <ele>5.9</ele>
    <time>2025-12-25T14:18:38Z</time>
   </trkpt>
   <trkpt lat="53.4636020" lon="-10.0184940">
    <ele>5.9</ele>
    <time>2025-12-25T14:18:44Z</time>
   </trkpt>
   <trkpt lat="53.4636280" lon="-10.0183970">
    <ele>5.9</ele>
    <time>2025-12-25T14:18:49Z</time>
   </trkpt>
   <trkpt lat="53.4636380" lon="-10.0182840">
    <ele>5.8</ele>
    <time>2025-12-25T14:18:54Z</time>
   </trkpt>
   <trkpt lat="53.4637090" lon="-10.0182190">
    <ele>5.5</ele>
    <time>2025-12-25T14:19:00Z</time>
   </trkpt>
   <trkpt lat="53.4637570" lon="-10.0181710">
    <ele>5.6</ele>
    <time>2025-12-25T14:19:05Z</time>
   </trkpt>
   <trkpt lat="53.4638220" lon="-10.0181300">
    <ele>5.4</ele>
    <time>2025-12-25T14:19:10Z</time>
   </trkpt>
   <trkpt lat="53.4638700" lon="-10.0180780">
    <ele>5.3</ele>
    <time>2025-12-25T14:19:16Z</time>
   </trkpt>
   <trkpt lat="53.4639040" lon="-10.0180040">
    <ele>5.2</ele>
    <time>2025-12-25T14:19:21Z</time>
   </trkpt>
   <trkpt lat="53.4639670" lon="-10.0179440">
    <ele>5.2</ele>
    <time>2025-12-25T14:19:26Z</time>
   </trkpt>
   <trkpt lat="53.4640110" lon="-10.0178560">
    <ele>5.2</ele>
    <time>2025-12-25T14:19:32Z</time>
   </trkpt>
   <trkpt lat="53.4640580" lon="-10.0177480">
    <ele>5.5</ele>
    <time>2025-12-25T14:19:37Z</time>
   </trkpt>
   <trkpt lat="53.4640370" lon="-10.0176150">
    <ele>5.7</ele>
    <time>2025-12-25T14:19:42Z</time>
   </trkpt>
   <trkpt lat="53.4639690" lon="-10.0175230">
    <ele>5.8</ele>
    <time>2025-12-25T14:19:48Z</time>
   </trkpt>
   <trkpt lat="53.4639220" lon="-10.0174550">
    <ele>5.9</ele>
    <time>2025-12-25T14:19:53Z</time>
   </trkpt>
   <trkpt lat="53.4638640" lon="-10.0173750">
    <ele>5.8</ele>
    <time>2025-12-25T14:19:58Z</time>
   </trkpt>
   <trkpt lat="53.4638210" lon="-10.0173190">
    <ele>6.0</ele>
    <time>2025-12-25T14:20:03Z</time>
   </trkpt>
   <trkpt lat="53.4637770" lon="-10.0172760">
    <ele>6.2</ele>
    <time>2025-12-25T14:20:09Z</time>
   </trkpt>
   <trkpt lat="53.4637440" lon="-10.0172110">
    <ele>6.3</ele>
    <time>2025-12-25T14:20:19Z</time>
   </trkpt>
   <trkpt lat="53.4636960" lon="-10.0170890">
    <ele>6.4</ele>
    <time>2025-12-25T14:20:24Z</time>
   </trkpt>
   <trkpt lat="53.4636420" lon="-10.0170070">
    <ele>6.5</ele>
    <time>2025-12-25T14:20:29Z</time>
   </trkpt>
   <trkpt lat="53.4635840" lon="-10.0169160">
    <ele>6.9</ele>
    <time>2025-12-25T14:20:34Z</time>
   </trkpt>
   <trkpt lat="53.4635460" lon="-10.0168300">
    <ele>7.1</ele>
    <time>2025-12-25T14:20:39Z</time>
   </trkpt>
   <trkpt lat="53.4635140" lon="-10.0167490">
    <ele>7.4</ele>
    <time>2025-12-25T14:20:44Z</time>
   </trkpt>
   <trkpt lat="53.4634740" lon="-10.0166520">
    <ele>7.3</ele>
    <time>2025-12-25T14:20:50Z</time>
   </trkpt>
   <trkpt lat="53.4634450" lon="-10.0165600">
    <ele>7.0</ele>
    <time>2025-12-25T14:20:55Z</time>
   </trkpt>
   <trkpt lat="53.4634270" lon="-10.0164660">
    <ele>7.2</ele>
    <time>2025-12-25T14:21:00Z</time>
   </trkpt>
   <trkpt lat="53.4634350" lon="-10.0163690">
    <ele>7.6</ele>
    <time>2025-12-25T14:21:05Z</time>
   </trkpt>
   <trkpt lat="53.4634190" lon="-10.0162730">
    <ele>7.9</ele>
    <time>2025-12-25T14:21:11Z</time>
   </trkpt>
   <trkpt lat="53.4634070" lon="-10.0161900">
    <ele>8.4</ele>
    <time>2025-12-25T14:21:17Z</time>
   </trkpt>
   <trkpt lat="53.4633830" lon="-10.0160400">
    <ele>8.5</ele>
    <time>2025-12-25T14:21:22Z</time>
   </trkpt>
   <trkpt lat="53.4633590" lon="-10.0159440">
    <ele>8.5</ele>
    <time>2025-12-25T14:21:27Z</time>
   </trkpt>
   <trkpt lat="53.4633620" lon="-10.0158600">
    <ele>9.1</ele>
    <time>2025-12-25T14:21:33Z</time>
   </trkpt>
   <trkpt lat="53.4633780" lon="-10.0157600">
    <ele>9.5</ele>
    <time>2025-12-25T14:21:38Z</time>
   </trkpt>
   <trkpt lat="53.4633820" lon="-10.0156540">
    <ele>9.8</ele>
    <time>2025-12-25T14:21:43Z</time>
   </trkpt>
   <trkpt lat="53.4633900" lon="-10.0155620">
    <ele>9.8</ele>
    <time>2025-12-25T14:21:48Z</time>
   </trkpt>
   <trkpt lat="53.4634020" lon="-10.0154780">
    <ele>9.8</ele>
    <time>2025-12-25T14:21:54Z</time>
   </trkpt>
   <trkpt lat="53.4633850" lon="-10.0153700">
    <ele>9.8</ele>
    <time>2025-12-25T14:21:59Z</time>
   </trkpt>
   <trkpt lat="53.4633710" lon="-10.0152520">
    <ele>9.9</ele>
    <time>2025-12-25T14:22:04Z</time>
   </trkpt>
   <trkpt lat="53.4633880" lon="-10.0151440">
    <ele>10.1</ele>
    <time>2025-12-25T14:22:09Z</time>
   </trkpt>
   <trkpt lat="53.4634020" lon="-10.0150440">
    <ele>10.2</ele>
    <time>2025-12-25T14:22:14Z</time>
   </trkpt>
   <trkpt lat="53.4634090" lon="-10.0149510">
    <ele>10.2</ele>
    <time>2025-12-25T14:22:19Z</time>
   </trkpt>
   <trkpt lat="53.4634120" lon="-10.0148250">
    <ele>10.4</ele>
    <time>2025-12-25T14:22:24Z</time>
   </trkpt>
   <trkpt lat="53.4634050" lon="-10.0147320">
    <ele>10.6</ele>
    <time>2025-12-25T14:22:30Z</time>
   </trkpt>
   <trkpt lat="53.4634010" lon="-10.0146220">
    <ele>10.7</ele>
    <time>2025-12-25T14:22:35Z</time>
   </trkpt>
   <trkpt lat="53.4633870" lon="-10.0145240">
    <ele>11.0</ele>
    <time>2025-12-25T14:22:40Z</time>
   </trkpt>
   <trkpt lat="53.4633660" lon="-10.0144190">
    <ele>10.9</ele>
    <time>2025-12-25T14:22:45Z</time>
   </trkpt>
   <trkpt lat="53.4633590" lon="-10.0143130">
    <ele>10.9</ele>
    <time>2025-12-25T14:22:50Z</time>
   </trkpt>
   <trkpt lat="53.4633480" lon="-10.0142190">
    <ele>11.2</ele>
    <time>2025-12-25T14:22:55Z</time>
   </trkpt>
   <trkpt lat="53.4633450" lon="-10.0141400">
    <ele>11.5</ele>
    <time>2025-12-25T14:23:02Z</time>
   </trkpt>
   <trkpt lat="53.4633510" lon="-10.0140080">
    <ele>11.6</ele>
    <time>2025-12-25T14:23:07Z</time>
   </trkpt>
   <trkpt lat="53.4633440" lon="-10.0138820">
    <ele>11.7</ele>
    <time>2025-12-25T14:23:12Z</time>
   </trkpt>
   <trkpt lat="53.4633320" lon="-10.0137940">
    <ele>11.5</ele>
    <time>2025-12-25T14:23:18Z</time>
   </trkpt>
   <trkpt lat="53.4633120" lon="-10.0136700">
    <ele>11.6</ele>
    <time>2025-12-25T14:23:23Z</time>
   </trkpt>
   <trkpt lat="53.4632990" lon="-10.0135730">
    <ele>11.9</ele>
    <time>2025-12-25T14:23:28Z</time>
   </trkpt>
   <trkpt lat="53.4633090" lon="-10.0134880">
    <ele>11.9</ele>
    <time>2025-12-25T14:23:33Z</time>
   </trkpt>
   <trkpt lat="53.4632900" lon="-10.0133780">
    <ele>11.9</ele>
    <time>2025-12-25T14:23:38Z</time>
   </trkpt>
   <trkpt lat="53.4632820" lon="-10.0132900">
    <ele>11.9</ele>
    <time>2025-12-25T14:23:43Z</time>
   </trkpt>
   <trkpt lat="53.4632830" lon="-10.0131950">
    <ele>11.9</ele>
    <time>2025-12-25T14:23:48Z</time>
   </trkpt>
   <trkpt lat="53.4632530" lon="-10.0130830">
    <ele>12.2</ele>
    <time>2025-12-25T14:23:54Z</time>
   </trkpt>
   <trkpt lat="53.4632370" lon="-10.0129770">
    <ele>12.3</ele>
    <time>2025-12-25T14:23:59Z</time>
   </trkpt>
   <trkpt lat="53.4632180" lon="-10.0128640">
    <ele>12.2</ele>
    <time>2025-12-25T14:24:04Z</time>
   </trkpt>
   <trkpt lat="53.4632170" lon="-10.0127640">
    <ele>12.1</ele>
    <time>2025-12-25T14:24:09Z</time>
   </trkpt>
   <trkpt lat="53.4632070" lon="-10.0126700">
    <ele>12.0</ele>
    <time>2025-12-25T14:24:14Z</time>
   </trkpt>
   <trkpt lat="53.4631890" lon="-10.0125600">
    <ele>12.1</ele>
    <time>2025-12-25T14:24:19Z</time>
   </trkpt>
   <trkpt lat="53.4632080" lon="-10.0124770">
    <ele>12.0</ele>
    <time>2025-12-25T14:24:24Z</time>
   </trkpt>
   <trkpt lat="53.4632440" lon="-10.0124080">
    <ele>11.9</ele>
    <time>2025-12-25T14:24:30Z</time>
   </trkpt>
   <trkpt lat="53.4632390" lon="-10.0123290">
    <ele>12.0</ele>
    <time>2025-12-25T14:24:36Z</time>
   </trkpt>
   <trkpt lat="53.4632030" lon="-10.0122780">
    <ele>11.9</ele>
    <time>2025-12-25T14:24:42Z</time>
   </trkpt>
   <trkpt lat="53.4631660" lon="-10.0121730">
    <ele>11.9</ele>
    <time>2025-12-25T14:24:47Z</time>
   </trkpt>
   <trkpt lat="53.4631500" lon="-10.0120510">
    <ele>11.8</ele>
    <time>2025-12-25T14:24:53Z</time>
   </trkpt>
   <trkpt lat="53.4631210" lon="-10.0119400">
    <ele>11.7</ele>
    <time>2025-12-25T14:24:58Z</time>
   </trkpt>
   <trkpt lat="53.4630780" lon="-10.0118770">
    <ele>11.8</ele>
    <time>2025-12-25T14:25:03Z</time>
   </trkpt>
   <trkpt lat="53.4630660" lon="-10.0117780">
    <ele>11.4</ele>
    <time>2025-12-25T14:25:08Z</time>
   </trkpt>
   <trkpt lat="53.4631030" lon="-10.0117000">
    <ele>11.0</ele>
    <time>2025-12-25T14:25:13Z</time>
   </trkpt>
   <trkpt lat="53.4630840" lon="-10.0117830">
    <ele>10.8</ele>
    <time>2025-12-25T14:25:19Z</time>
   </trkpt>
   <trkpt lat="53.4630430" lon="-10.0118730">
    <ele>10.8</ele>
    <time>2025-12-25T14:25:24Z</time>
   </trkpt>
   <trkpt lat="53.4629750" lon="-10.0118960">
    <ele>10.9</ele>
    <time>2025-12-25T14:25:30Z</time>
   </trkpt>
   <trkpt lat="53.4629050" lon="-10.0119260">
    <ele>10.8</ele>
    <time>2025-12-25T14:25:35Z</time>
   </trkpt>
   <trkpt lat="53.4628480" lon="-10.0119630">
    <ele>10.6</ele>
    <time>2025-12-25T14:25:40Z</time>
   </trkpt>
   <trkpt lat="53.4628000" lon="-10.0120090">
    <ele>10.5</ele>
    <time>2025-12-25T14:25:45Z</time>
   </trkpt>
   <trkpt lat="53.4627460" lon="-10.0120480">
    <ele>10.5</ele>
    <time>2025-12-25T14:25:51Z</time>
   </trkpt>
   <trkpt lat="53.4626880" lon="-10.0120970">
    <ele>10.4</ele>
    <time>2025-12-25T14:25:56Z</time>
   </trkpt>
   <trkpt lat="53.4626370" lon="-10.0121330">
    <ele>10.5</ele>
    <time>2025-12-25T14:26:01Z</time>
   </trkpt>
   <trkpt lat="53.4625880" lon="-10.0121770">
    <ele>10.4</ele>
    <time>2025-12-25T14:26:06Z</time>
   </trkpt>
   <trkpt lat="53.4625330" lon="-10.0122160">
    <ele>10.5</ele>
    <time>2025-12-25T14:26:11Z</time>
   </trkpt>
   <trkpt lat="53.4624700" lon="-10.0122330">
    <ele>11.0</ele>
    <time>2025-12-25T14:26:17Z</time>
   </trkpt>
   <trkpt lat="53.4625240" lon="-10.0122410">
    <ele>11.4</ele>
    <time>2025-12-25T14:26:35Z</time>
   </trkpt>
   <trkpt lat="53.4626020" lon="-10.0122270">
    <ele>11.3</ele>
    <time>2025-12-25T14:26:40Z</time>
   </trkpt>
   <trkpt lat="53.4626600" lon="-10.0121840">
    <ele>11.1</ele>
    <time>2025-12-25T14:26:46Z</time>
   </trkpt>
   <trkpt lat="53.4627270" lon="-10.0121360">
    <ele>10.9</ele>
    <time>2025-12-25T14:26:51Z</time>
   </trkpt>
   <trkpt lat="53.4627900" lon="-10.0120850">
    <ele>10.7</ele>
    <time>2025-12-25T14:26:56Z</time>
   </trkpt>
   <trkpt lat="53.4628410" lon="-10.0120310">
    <ele>10.6</ele>
    <time>2025-12-25T14:27:01Z</time>
   </trkpt>
   <trkpt lat="53.4629060" lon="-10.0120020">
    <ele>10.5</ele>
    <time>2025-12-25T14:27:06Z</time>
   </trkpt>
   <trkpt lat="53.4629580" lon="-10.0120050">
    <ele>10.5</ele>
    <time>2025-12-25T14:27:11Z</time>
   </trkpt>
   <trkpt lat="53.4629900" lon="-10.0119450">
    <ele>10.6</ele>
    <time>2025-12-25T14:27:19Z</time>
   </trkpt>
   <trkpt lat="53.4630640" lon="-10.0118940">
    <ele>10.7</ele>
    <time>2025-12-25T14:27:25Z</time>
   </trkpt>
   <trkpt lat="53.4630950" lon="-10.0117740">
    <ele>10.8</ele>
    <time>2025-12-25T14:27:30Z</time>
   </trkpt>
   <trkpt lat="53.4630910" lon="-10.0116470">
    <ele>10.6</ele>
    <time>2025-12-25T14:27:35Z</time>
   </trkpt>
   <trkpt lat="53.4630980" lon="-10.0115200">
    <ele>10.5</ele>
    <time>2025-12-25T14:27:40Z</time>
   </trkpt>
   <trkpt lat="53.4630910" lon="-10.0114140">
    <ele>10.4</ele>
    <time>2025-12-25T14:27:46Z</time>
   </trkpt>
   <trkpt lat="53.4630800" lon="-10.0113100">
    <ele>10.5</ele>
    <time>2025-12-25T14:27:51Z</time>
   </trkpt>
   <trkpt lat="53.4630430" lon="-10.0111980">
    <ele>10.6</ele>
    <time>2025-12-25T14:27:57Z</time>
   </trkpt>
   <trkpt lat="53.4630280" lon="-10.0110790">
    <ele>10.8</ele>
    <time>2025-12-25T14:28:02Z</time>
   </trkpt>
   <trkpt lat="53.4630330" lon="-10.0109710">
    <ele>11.0</ele>
    <time>2025-12-25T14:28:07Z</time>
   </trkpt>
   <trkpt lat="53.4630370" lon="-10.0108620">
    <ele>11.3</ele>
    <time>2025-12-25T14:28:12Z</time>
   </trkpt>
   <trkpt lat="53.4630240" lon="-10.0107540">
    <ele>11.4</ele>
    <time>2025-12-25T14:28:18Z</time>
   </trkpt>
   <trkpt lat="53.4630110" lon="-10.0106500">
    <ele>11.7</ele>
    <time>2025-12-25T14:28:23Z</time>
   </trkpt>
   <trkpt lat="53.4630040" lon="-10.0105360">
    <ele>11.8</ele>
    <time>2025-12-25T14:28:28Z</time>
   </trkpt>
   <trkpt lat="53.4629850" lon="-10.0104330">
    <ele>11.5</ele>
    <time>2025-12-25T14:28:33Z</time>
   </trkpt>
   <trkpt lat="53.4629770" lon="-10.0103160">
    <ele>11.4</ele>
    <time>2025-12-25T14:28:39Z</time>
   </trkpt>
   <trkpt lat="53.4629700" lon="-10.0102090">
    <ele>11.6</ele>
    <time>2025-12-25T14:28:44Z</time>
   </trkpt>
   <trkpt lat="53.4629760" lon="-10.0101080">
    <ele>11.8</ele>
    <time>2025-12-25T14:28:49Z</time>
   </trkpt>
   <trkpt lat="53.4629640" lon="-10.0099880">
    <ele>12.0</ele>
    <time>2025-12-25T14:28:55Z</time>
   </trkpt>
   <trkpt lat="53.4629670" lon="-10.0098670">
    <ele>11.9</ele>
    <time>2025-12-25T14:29:00Z</time>
   </trkpt>
   <trkpt lat="53.4629800" lon="-10.0097770">
    <ele>11.6</ele>
    <time>2025-12-25T14:29:05Z</time>
   </trkpt>
   <trkpt lat="53.4629900" lon="-10.0096760">
    <ele>11.4</ele>
    <time>2025-12-25T14:29:10Z</time>
   </trkpt>
   <trkpt lat="53.4629940" lon="-10.0095790">
    <ele>11.4</ele>
    <time>2025-12-25T14:29:15Z</time>
   </trkpt>
   <trkpt lat="53.4629950" lon="-10.0094720">
    <ele>11.6</ele>
    <time>2025-12-25T14:29:20Z</time>
   </trkpt>
   <trkpt lat="53.4629940" lon="-10.0093610">
    <ele>11.6</ele>
    <time>2025-12-25T14:29:25Z</time>
   </trkpt>
   <trkpt lat="53.4629970" lon="-10.0092510">
    <ele>11.7</ele>
    <time>2025-12-25T14:29:30Z</time>
   </trkpt>
   <trkpt lat="53.4629820" lon="-10.0091410">
    <ele>11.6</ele>
    <time>2025-12-25T14:29:35Z</time>
   </trkpt>
   <trkpt lat="53.4629870" lon="-10.0090480">
    <ele>11.9</ele>
    <time>2025-12-25T14:29:41Z</time>
   </trkpt>
   <trkpt lat="53.4630030" lon="-10.0089550">
    <ele>12.3</ele>
    <time>2025-12-25T14:29:46Z</time>
   </trkpt>
   <trkpt lat="53.4630040" lon="-10.0088550">
    <ele>13.0</ele>
    <time>2025-12-25T14:29:51Z</time>
   </trkpt>
   <trkpt lat="53.4630000" lon="-10.0087660">
    <ele>13.4</ele>
    <time>2025-12-25T14:29:56Z</time>
   </trkpt>
   <trkpt lat="53.4630060" lon="-10.0086730">
    <ele>13.5</ele>
    <time>2025-12-25T14:30:01Z</time>
   </trkpt>
   <trkpt lat="53.4630140" lon="-10.0085760">
    <ele>13.5</ele>
    <time>2025-12-25T14:30:07Z</time>
   </trkpt>
   <trkpt lat="53.4630150" lon="-10.0084650">
    <ele>13.6</ele>
    <time>2025-12-25T14:30:12Z</time>
   </trkpt>
   <trkpt lat="53.4630190" lon="-10.0083690">
    <ele>13.7</ele>
    <time>2025-12-25T14:30:17Z</time>
   </trkpt>
   <trkpt lat="53.4630160" lon="-10.0082550">
    <ele>13.7</ele>
    <time>2025-12-25T14:30:22Z</time>
   </trkpt>
   <trkpt lat="53.4630170" lon="-10.0081490">
    <ele>13.8</ele>
    <time>2025-12-25T14:30:27Z</time>
   </trkpt>
   <trkpt lat="53.4630380" lon="-10.0080500">
    <ele>13.7</ele>
    <time>2025-12-25T14:30:32Z</time>
   </trkpt>
   <trkpt lat="53.4630580" lon="-10.0079440">
    <ele>13.5</ele>
    <time>2025-12-25T14:30:37Z</time>
   </trkpt>
   <trkpt lat="53.4630810" lon="-10.0078300">
    <ele>13.5</ele>
    <time>2025-12-25T14:30:43Z</time>
   </trkpt>
   <trkpt lat="53.4630910" lon="-10.0077100">
    <ele>13.4</ele>
    <time>2025-12-25T14:30:48Z</time>
   </trkpt>
   <trkpt lat="53.4631030" lon="-10.0076010">
    <ele>13.1</ele>
    <time>2025-12-25T14:30:54Z</time>
   </trkpt>
   <trkpt lat="53.4631180" lon="-10.0075110">
    <ele>12.7</ele>
    <time>2025-12-25T14:30:59Z</time>
   </trkpt>
   <trkpt lat="53.4631510" lon="-10.0074120">
    <ele>12.1</ele>
    <time>2025-12-25T14:31:04Z</time>
   </trkpt>
   <trkpt lat="53.4631880" lon="-10.0073090">
    <ele>12.0</ele>
    <time>2025-12-25T14:31:09Z</time>
   </trkpt>
   <trkpt lat="53.4632390" lon="-10.0072140">
    <ele>12.0</ele>
    <time>2025-12-25T14:31:15Z</time>
   </trkpt>
   <trkpt lat="53.4632720" lon="-10.0071180">
    <ele>11.9</ele>
    <time>2025-12-25T14:31:20Z</time>
   </trkpt>
   <trkpt lat="53.4632920" lon="-10.0070180">
    <ele>11.8</ele>
    <time>2025-12-25T14:31:25Z</time>
   </trkpt>
   <trkpt lat="53.4633120" lon="-10.0069190">
    <ele>11.7</ele>
    <time>2025-12-25T14:31:30Z</time>
   </trkpt>
   <trkpt lat="53.4633280" lon="-10.0068220">
    <ele>12.0</ele>
    <time>2025-12-25T14:31:36Z</time>
   </trkpt>
   <trkpt lat="53.4633530" lon="-10.0067320">
    <ele>12.3</ele>
    <time>2025-12-25T14:31:41Z</time>
   </trkpt>
   <trkpt lat="53.4633570" lon="-10.0066350">
    <ele>12.5</ele>
    <time>2025-12-25T14:31:46Z</time>
   </trkpt>
   <trkpt lat="53.4633550" lon="-10.0065350">
    <ele>12.9</ele>
    <time>2025-12-25T14:31:52Z</time>
   </trkpt>
   <trkpt lat="53.4633400" lon="-10.0064140">
    <ele>13.1</ele>
    <time>2025-12-25T14:31:57Z</time>
   </trkpt>
   <trkpt lat="53.4633330" lon="-10.0063220">
    <ele>13.3</ele>
    <time>2025-12-25T14:32:02Z</time>
   </trkpt>
   <trkpt lat="53.4633180" lon="-10.0062180">
    <ele>13.5</ele>
    <time>2025-12-25T14:32:07Z</time>
   </trkpt>
   <trkpt lat="53.4632820" lon="-10.0061170">
    <ele>13.6</ele>
    <time>2025-12-25T14:32:13Z</time>
   </trkpt>
   <trkpt lat="53.4632540" lon="-10.0060180">
    <ele>13.9</ele>
    <time>2025-12-25T14:32:18Z</time>
   </trkpt>
   <trkpt lat="53.4632210" lon="-10.0059430">
    <ele>14.1</ele>
    <time>2025-12-25T14:32:23Z</time>
   </trkpt>
   <trkpt lat="53.4631950" lon="-10.0058640">
    <ele>14.6</ele>
    <time>2025-12-25T14:32:35Z</time>
   </trkpt>
   <trkpt lat="53.4631680" lon="-10.0057230">
    <ele>14.7</ele>
    <time>2025-12-25T14:32:40Z</time>
   </trkpt>
   <trkpt lat="53.4631290" lon="-10.0056450">
    <ele>14.9</ele>
    <time>2025-12-25T14:32:45Z</time>
   </trkpt>
   <trkpt lat="53.4630860" lon="-10.0055560">
    <ele>15.1</ele>
    <time>2025-12-25T14:32:50Z</time>
   </trkpt>
   <trkpt lat="53.4630340" lon="-10.0054710">
    <ele>14.9</ele>
    <time>2025-12-25T14:32:55Z</time>
   </trkpt>
   <trkpt lat="53.4630050" lon="-10.0053770">
    <ele>14.8</ele>
    <time>2025-12-25T14:33:00Z</time>
   </trkpt>
   <trkpt lat="53.4629650" lon="-10.0053050">
    <ele>14.9</ele>
    <time>2025-12-25T14:33:06Z</time>
   </trkpt>
   <trkpt lat="53.4629240" lon="-10.0052360">
    <ele>14.8</ele>
    <time>2025-12-25T14:33:11Z</time>
   </trkpt>
   <trkpt lat="53.4628800" lon="-10.0051480">
    <ele>14.7</ele>
    <time>2025-12-25T14:33:16Z</time>
   </trkpt>
   <trkpt lat="53.4628450" lon="-10.0050650">
    <ele>14.6</ele>
    <time>2025-12-25T14:33:21Z</time>
   </trkpt>
   <trkpt lat="53.4628250" lon="-10.0049700">
    <ele>14.6</ele>
    <time>2025-12-25T14:33:26Z</time>
   </trkpt>
   <trkpt lat="53.4627860" lon="-10.0048760">
    <ele>14.7</ele>
    <time>2025-12-25T14:33:32Z</time>
   </trkpt>
   <trkpt lat="53.4627430" lon="-10.0047810">
    <ele>15.1</ele>
    <time>2025-12-25T14:33:38Z</time>
   </trkpt>
   <trkpt lat="53.4627040" lon="-10.0047050">
    <ele>15.1</ele>
    <time>2025-12-25T14:33:43Z</time>
   </trkpt>
   <trkpt lat="53.4626600" lon="-10.0046240">
    <ele>15.3</ele>
    <time>2025-12-25T14:33:48Z</time>
   </trkpt>
   <trkpt lat="53.4626270" lon="-10.0045250">
    <ele>15.2</ele>
    <time>2025-12-25T14:33:53Z</time>
   </trkpt>
   <trkpt lat="53.4626070" lon="-10.0044330">
    <ele>15.4</ele>
    <time>2025-12-25T14:33:59Z</time>
   </trkpt>
   <trkpt lat="53.4625710" lon="-10.0043560">
    <ele>15.8</ele>
    <time>2025-12-25T14:34:04Z</time>
   </trkpt>
   <trkpt lat="53.4625370" lon="-10.0042670">
    <ele>15.8</ele>
    <time>2025-12-25T14:34:09Z</time>
   </trkpt>
   <trkpt lat="53.4625030" lon="-10.0041710">
    <ele>16.1</ele>
    <time>2025-12-25T14:34:14Z</time>
   </trkpt>
   <trkpt lat="53.4624650" lon="-10.0040750">
    <ele>16.0</ele>
    <time>2025-12-25T14:34:20Z</time>
   </trkpt>
   <trkpt lat="53.4624390" lon="-10.0039760">
    <ele>15.7</ele>
    <time>2025-12-25T14:34:25Z</time>
   </trkpt>
   <trkpt lat="53.4624210" lon="-10.0039000">
    <ele>15.7</ele>
    <time>2025-12-25T14:34:30Z</time>
   </trkpt>
   <trkpt lat="53.4624000" lon="-10.0038170">
    <ele>15.9</ele>
    <time>2025-12-25T14:34:35Z</time>
   </trkpt>
   <trkpt lat="53.4623730" lon="-10.0037130">
    <ele>16.3</ele>
    <time>2025-12-25T14:34:40Z</time>
   </trkpt>
   <trkpt lat="53.4623470" lon="-10.0035920">
    <ele>16.3</ele>
    <time>2025-12-25T14:34:46Z</time>
   </trkpt>
   <trkpt lat="53.4623280" lon="-10.0034940">
    <ele>16.3</ele>
    <time>2025-12-25T14:34:51Z</time>
   </trkpt>
   <trkpt lat="53.4623050" lon="-10.0034050">
    <ele>16.5</ele>
    <time>2025-12-25T14:34:56Z</time>
   </trkpt>
   <trkpt lat="53.4622820" lon="-10.0033110">
    <ele>16.8</ele>
    <time>2025-12-25T14:35:01Z</time>
   </trkpt>
   <trkpt lat="53.4622580" lon="-10.0032110">
    <ele>16.8</ele>
    <time>2025-12-25T14:35:06Z</time>
   </trkpt>
   <trkpt lat="53.4622220" lon="-10.0031320">
    <ele>17.0</ele>
    <time>2025-12-25T14:35:12Z</time>
   </trkpt>
   <trkpt lat="53.4621990" lon="-10.0030300">
    <ele>17.3</ele>
    <time>2025-12-25T14:35:17Z</time>
   </trkpt>
   <trkpt lat="53.4621940" lon="-10.0029450">
    <ele>17.5</ele>
    <time>2025-12-25T14:35:22Z</time>
   </trkpt>
   <trkpt lat="53.4621850" lon="-10.0028610">
    <ele>17.9</ele>
    <time>2025-12-25T14:35:28Z</time>
   </trkpt>
   <trkpt lat="53.4621630" lon="-10.0027650">
    <ele>18.2</ele>
    <time>2025-12-25T14:35:33Z</time>
   </trkpt>
   <trkpt lat="53.4621470" lon="-10.0026420">
    <ele>18.7</ele>
    <time>2025-12-25T14:35:38Z</time>
   </trkpt>
   <trkpt lat="53.4621450" lon="-10.0025440">
    <ele>18.9</ele>
    <time>2025-12-25T14:35:43Z</time>
   </trkpt>
   <trkpt lat="53.4621420" lon="-10.0024430">
    <ele>18.8</ele>
    <time>2025-12-25T14:35:48Z</time>
   </trkpt>
   <trkpt lat="53.4621330" lon="-10.0023560">
    <ele>18.8</ele>
    <time>2025-12-25T14:35:54Z</time>
   </trkpt>
   <trkpt lat="53.4621380" lon="-10.0022570">
    <ele>19.0</ele>
    <time>2025-12-25T14:35:59Z</time>
   </trkpt>
   <trkpt lat="53.4621460" lon="-10.0021460">
    <ele>19.1</ele>
    <time>2025-12-25T14:36:04Z</time>
   </trkpt>
   <trkpt lat="53.4621350" lon="-10.0020400">
    <ele>19.1</ele>
    <time>2025-12-25T14:36:09Z</time>
   </trkpt>
   <trkpt lat="53.4621360" lon="-10.0019250">
    <ele>18.8</ele>
    <time>2025-12-25T14:36:14Z</time>
   </trkpt>
   <trkpt lat="53.4621420" lon="-10.0018120">
    <ele>18.5</ele>
    <time>2025-12-25T14:36:20Z</time>
   </trkpt>
   <trkpt lat="53.4621490" lon="-10.0017160">
    <ele>18.2</ele>
    <time>2025-12-25T14:36:25Z</time>
   </trkpt>
   <trkpt lat="53.4621640" lon="-10.0016310">
    <ele>17.9</ele>
    <time>2025-12-25T14:36:30Z</time>
   </trkpt>
   <trkpt lat="53.4622090" lon="-10.0016240">
    <ele>17.8</ele>
    <time>2025-12-25T14:36:37Z</time>
   </trkpt>
   <trkpt lat="53.4622380" lon="-10.0017310">
    <ele>17.2</ele>
    <time>2025-12-25T14:36:42Z</time>
   </trkpt>
   <trkpt lat="53.4622720" lon="-10.0017980">
    <ele>16.5</ele>
    <time>2025-12-25T14:36:47Z</time>
   </trkpt>
   <trkpt lat="53.4623380" lon="-10.0018540">
    <ele>15.9</ele>
    <time>2025-12-25T14:36:52Z</time>
   </trkpt>
   <trkpt lat="53.4623930" lon="-10.0019040">
    <ele>15.4</ele>
    <time>2025-12-25T14:36:58Z</time>
   </trkpt>
   <trkpt lat="53.4624340" lon="-10.0019540">
    <ele>15.1</ele>
    <time>2025-12-25T14:37:03Z</time>
   </trkpt>
   <trkpt lat="53.4624820" lon="-10.0019560">
    <ele>14.9</ele>
    <time>2025-12-25T14:37:09Z</time>
   </trkpt>
   <trkpt lat="53.4625310" lon="-10.0019330">
    <ele>14.6</ele>
    <time>2025-12-25T14:37:24Z</time>
   </trkpt>
   <trkpt lat="53.4626220" lon="-10.0019130">
    <ele>14.4</ele>
    <time>2025-12-25T14:37:29Z</time>
   </trkpt>
   <trkpt lat="53.4626760" lon="-10.0018900">
    <ele>14.6</ele>
    <time>2025-12-25T14:37:34Z</time>
   </trkpt>
   <trkpt lat="53.4627310" lon="-10.0018690">
    <ele>14.4</ele>
    <time>2025-12-25T14:37:40Z</time>
   </trkpt>
   <trkpt lat="53.4627920" lon="-10.0018450">
    <ele>14.3</ele>
    <time>2025-12-25T14:37:45Z</time>
   </trkpt>
   <trkpt lat="53.4628440" lon="-10.0018100">
    <ele>14.7</ele>
    <time>2025-12-25T14:37:50Z</time>
   </trkpt>
   <trkpt lat="53.4628600" lon="-10.0017280">
    <ele>15.1</ele>
    <time>2025-12-25T14:37:59Z</time>
   </trkpt>
   <trkpt lat="53.4628780" lon="-10.0015720">
    <ele>15.5</ele>
    <time>2025-12-25T14:38:04Z</time>
   </trkpt>
   <trkpt lat="53.4628630" lon="-10.0016460">
    <ele>15.4</ele>
    <time>2025-12-25T14:38:11Z</time>
   </trkpt>
   <trkpt lat="53.4629090" lon="-10.0017840">
    <ele>15.4</ele>
    <time>2025-12-25T14:38:16Z</time>
   </trkpt>
   <trkpt lat="53.4629550" lon="-10.0017830">
    <ele>16.1</ele>
    <time>2025-12-25T14:39:08Z</time>
   </trkpt>
  </trkseg>
 </trk>
</gpx>
